Wetterdaten: Mittwoch, 20.05.2015
Datum Zeit Temp. Aussen +5cm Feuchte Auss Luftdruck Regen Sonnenschein Regendauer Solar Windben
20.05.2015 00:00 10,0 C 8,9 C 76 % 1009,3 hPa 0,0 l/m 0 min 0 min 0 W/m 12,6 km/h (3 Bft)
20.05.2015 00:02 9,9 C 8,9 C 76 % 1009,3 hPa 0,0 l/m 0 min 0 min 0 W/m 18,8 km/h (3 Bft)
20.05.2015 00:05 9,9 C 8,9 C 76 % 1009,3 hPa 0,0 l/m 0 min 0 min 0 W/m 10,5 km/h (2 Bft)
20.05.2015 00:06 9,9 C 8,9 C 76 % 1009,3 hPa 0,0 l/m 0 min 0 min 0 W/m 12,6 km/h (3 Bft)
20.05.2015 00:08 9,9 C 8,9 C 77 % 1009,2 hPa 0,0 l/m 0 min 0 min 0 W/m 18,8 km/h (3 Bft)
20.05.2015 00:10 9,8 C 8,9 C 77 % 1009,2 hPa 0,0 l/m 0 min 0 min 0 W/m 12,6 km/h (3 Bft)
20.05.2015 00:12 9,8 C 8,9 C 77 % 1009,2 hPa 0,0 l/m 0 min 0 min 0 W/m 16,7 km/h (3 Bft)
20.05.2015 00:14 9,8 C 8,9 C 77 % 1009,2 hPa 0,0 l/m 0 min 0 min 0 W/m 16,7 km/h (3 Bft)
20.05.2015 00:16 9,7 C 8,9 C 77 % 1009,3 hPa 0,0 l/m 0 min 0 min 0 W/m 16,7 km/h (3 Bft)
20.05.2015 00:18 9,7 C 8,9 C 77 % 1009,3 hPa 0,0 l/m 0 min 0 min 0 W/m 14,6 km/h (3 Bft)
20.05.2015 00:20 9,7 C 8,3 C 77 % 1009,3 hPa 0,0 l/m 0 min 0 min 0 W/m 16,7 km/h (3 Bft)
20.05.2015 00:22 9,7 C 8,3 C 78 % 1009,3 hPa 0,0 l/m 0 min 0 min 0 W/m 14,6 km/h (3 Bft)
20.05.2015 00:24 9,6 C 8,3 C 78 % 1009,3 hPa 0,0 l/m 0 min 0 min 0 W/m 16,7 km/h (3 Bft)
20.05.2015 00:26 9,6 C 8,3 C 78 % 1009,4 hPa 0,0 l/m 0 min 0 min 0 W/m 14,6 km/h (3 Bft)
20.05.2015 00:28 9,6 C 8,3 C 78 % 1009,4 hPa 0,0 l/m 0 min 0 min 0 W/m 16,7 km/h (3 Bft)
20.05.2015 00:30 9,6 C 8,3 C 78 % 1009,3 hPa 0,0 l/m 0 min 0 min 0 W/m 14,6 km/h (3 Bft)
20.05.2015 00:32 9,5 C 8,3 C 78 % 1009,3 hPa 0,0 l/m 0 min 0 min 0 W/m 18,8 km/h (3 Bft)
20.05.2015 00:34 9,5 C 8,3 C 78 % 1009,3 hPa 0,0 l/m 0 min 0 min 0 W/m 20,9 km/h (4 Bft)
20.05.2015 00:36 9,5 C 8,3 C 78 % 1009,3 hPa 0,0 l/m 0 min 0 min 0 W/m 16,7 km/h (3 Bft)
20.05.2015 00:38 9,5 C 8,3 C 78 % 1009,3 hPa 0,0 l/m 0 min 0 min 0 W/m 18,8 km/h (3 Bft)
20.05.2015 00:40 9,4 C 8,3 C 78 % 1009,3 hPa 0,0 l/m 0 min 0 min 0 W/m 14,6 km/h (3 Bft)
20.05.2015 00:42 9,4 C 8,3 C 78 % 1009,3 hPa 0,0 l/m 0 min 0 min 0 W/m 16,7 km/h (3 Bft)
20.05.2015 00:44 9,4 C 8,3 C 78 % 1009,3 hPa 0,0 l/m 0 min 0 min 0 W/m 14,6 km/h (3 Bft)
20.05.2015 00:46 9,4 C 8,3 C 78 % 1009,2 hPa 0,0 l/m 0 min 0 min 0 W/m 12,6 km/h (3 Bft)
20.05.2015 00:48 9,4 C 8,9 C 78 % 1009,2 hPa 0,0 l/m 0 min 0 min 0 W/m 12,6 km/h (3 Bft)
20.05.2015 00:50 9,4 C 8,9 C 78 % 1009,2 hPa 0,0 l/m 0 min 0 min 0 W/m 14,6 km/h (3 Bft)
20.05.2015 00:52 9,4 C 8,9 C 78 % 1009,3 hPa 0,0 l/m 0 min 0 min 0 W/m 16,7 km/h (3 Bft)
20.05.2015 00:54 9,4 C 8,9 C 79 % 1009,3 hPa 0,0 l/m 0 min 0 min 0 W/m 14,6 km/h (3 Bft)
20.05.2015 00:56 9,4 C 8,3 C 79 % 1009,3 hPa 0,0 l/m 0 min 0 min 0 W/m 16,7 km/h (3 Bft)
20.05.2015 00:58 9,4 C 8,3 C 79 % 1009,3 hPa 0,0 l/m 0 min 0 min 0 W/m 10,5 km/h (2 Bft)
20.05.2015 01:00 9,4 C 8,3 C 79 % 1009,3 hPa 0,0 l/m 0 min 0 min 0 W/m 14,6 km/h (3 Bft)
20.05.2015 01:02 9,4 C 8,3 C 79 % 1009,3 hPa 0,0 l/m 0 min 0 min 0 W/m 14,6 km/h (3 Bft)
20.05.2015 01:04 9,3 C 8,3 C 79 % 1009,3 hPa 0,0 l/m 0 min 0 min 0 W/m 18,8 km/h (3 Bft)
20.05.2015 01:06 9,3 C 8,3 C 79 % 1009,3 hPa 0,0 l/m 0 min 0 min 0 W/m 16,7 km/h (3 Bft)
20.05.2015 01:08 9,3 C 8,3 C 79 % 1009,4 hPa 0,0 l/m 0 min 0 min 0 W/m 10,5 km/h (2 Bft)
20.05.2015 01:10 9,3 C 8,3 C 79 % 1009,4 hPa 0,0 l/m 0 min 0 min 0 W/m 8,4 km/h (2 Bft)
20.05.2015 01:12 9,3 C 8,3 C 79 % 1009,4 hPa 0,0 l/m 0 min 0 min 0 W/m 12,6 km/h (3 Bft)
20.05.2015 01:14 9,3 C 8,3 C 79 % 1009,4 hPa 0,0 l/m 0 min 0 min 0 W/m 14,6 km/h (3 Bft)
20.05.2015 01:16 9,2 C 8,3 C 80 % 1009,4 hPa 0,0 l/m 0 min 0 min 0 W/m 14,6 km/h (3 Bft)
20.05.2015 01:18 9,2 C 8,3 C 80 % 1009,4 hPa 0,0 l/m 0 min 0 min 0 W/m 8,4 km/h (2 Bft)
20.05.2015 01:20 9,2 C 8,3 C 80 % 1009,4 hPa 0,0 l/m 0 min 0 min 0 W/m 14,6 km/h (3 Bft)
20.05.2015 01:22 9,2 C 8,3 C 80 % 1009,4 hPa 0,0 l/m 0 min 0 min 0 W/m 8,4 km/h (2 Bft)
20.05.2015 01:24 9,1 C 8,3 C 80 % 1009,4 hPa 0,0 l/m 0 min 0 min 0 W/m 12,6 km/h (3 Bft)
20.05.2015 01:26 9,1 C 7,8 C 80 % 1009,4 hPa 0,0 l/m 0 min 0 min 0 W/m 10,5 km/h (2 Bft)
20.05.2015 01:28 9,1 C 7,8 C 80 % 1009,4 hPa 0,0 l/m 0 min 0 min 0 W/m 14,6 km/h (3 Bft)
20.05.2015 01:30 9,0 C 7,8 C 81 % 1009,4 hPa 0,0 l/m 0 min 0 min 0 W/m 12,6 km/h (3 Bft)
20.05.2015 01:32 9,0 C 7,8 C 81 % 1009,4 hPa 0,0 l/m 0 min 0 min 0 W/m 14,6 km/h (3 Bft)
20.05.2015 01:34 8,9 C 7,8 C 81 % 1009,4 hPa 0,0 l/m 0 min 0 min 0 W/m 12,6 km/h (3 Bft)
20.05.2015 01:36 8,9 C 7,8 C 81 % 1009,6 hPa 0,0 l/m 0 min 0 min 0 W/m 6,3 km/h (2 Bft)
20.05.2015 01:38 8,9 C 7,8 C 81 % 1009,5 hPa 0,0 l/m 0 min 0 min 0 W/m 12,6 km/h (3 Bft)
20.05.2015 01:40 8,8 C 7,8 C 81 % 1009,5 hPa 0,0 l/m 0 min 0 min 0 W/m 16,7 km/h (3 Bft)
20.05.2015 01:42 8,8 C 7,8 C 81 % 1009,5 hPa 0,0 l/m 0 min 0 min 0 W/m 12,6 km/h (3 Bft)
20.05.2015 01:44 8,8 C 7,8 C 82 % 1009,6 hPa 0,0 l/m 0 min 0 min 0 W/m 14,6 km/h (3 Bft)
20.05.2015 01:46 8,7 C 7,8 C 82 % 1009,5 hPa 0,0 l/m 0 min 0 min 0 W/m 10,5 km/h (2 Bft)
20.05.2015 01:48 8,7 C 7,8 C 82 % 1009,5 hPa 0,0 l/m 0 min 0 min 0 W/m 10,5 km/h (2 Bft)
20.05.2015 01:50 8,7 C 7,8 C 82 % 1009,5 hPa 0,0 l/m 0 min 0 min 0 W/m 18,8 km/h (3 Bft)
20.05.2015 01:52 8,7 C 7,8 C 82 % 1009,6 hPa 0,0 l/m 0 min 0 min 0 W/m 12,6 km/h (3 Bft)
20.05.2015 01:54 8,6 C 7,8 C 82 % 1009,6 hPa 0,0 l/m 0 min 0 min 0 W/m 14,6 km/h (3 Bft)
20.05.2015 01:56 8,6 C 7,8 C 82 % 1009,6 hPa 0,0 l/m 0 min 0 min 0 W/m 12,6 km/h (3 Bft)
20.05.2015 01:58 8,6 C 7,8 C 82 % 1009,6 hPa 0,0 l/m 0 min 0 min 0 W/m 12,6 km/h (3 Bft)
20.05.2015 02:00 8,6 C 7,8 C 82 % 1009,7 hPa 0,0 l/m 0 min 0 min 0 W/m 16,7 km/h (3 Bft)
20.05.2015 02:02 8,5 C 7,8 C 83 % 1009,7 hPa 0,0 l/m 0 min 0 min 0 W/m 16,7 km/h (3 Bft)
20.05.2015 02:04 8,5 C 7,8 C 83 % 1009,7 hPa 0,0 l/m 0 min 0 min 0 W/m 16,7 km/h (3 Bft)
20.05.2015 02:06 8,4 C 7,8 C 83 % 1009,7 hPa 0,0 l/m 0 min 0 min 0 W/m 14,6 km/h (3 Bft)
20.05.2015 02:08 8,4 C 7,8 C 83 % 1009,6 hPa 0,0 l/m 0 min 0 min 0 W/m 14,6 km/h (3 Bft)
20.05.2015 02:10 8,4 C 7,8 C 83 % 1009,7 hPa 0,0 l/m 0 min 0 min 0 W/m 8,4 km/h (2 Bft)
20.05.2015 02:12 8,4 C 7,8 C 83 % 1009,7 hPa 0,0 l/m 0 min 0 min 0 W/m 12,6 km/h (3 Bft)
20.05.2015 02:14 8,4 C 7,8 C 83 % 1009,7 hPa 0,0 l/m 0 min 0 min 0 W/m 18,8 km/h (3 Bft)
20.05.2015 02:16 8,3 C 7,8 C 83 % 1009,8 hPa 0,0 l/m 0 min 0 min 0 W/m 14,6 km/h (3 Bft)
20.05.2015 02:18 8,3 C 7,8 C 83 % 1009,8 hPa 0,0 l/m 0 min 0 min 0 W/m 12,6 km/h (3 Bft)
20.05.2015 02:20 8,3 C 7,8 C 83 % 1009,7 hPa 0,0 l/m 0 min 0 min 0 W/m 12,6 km/h (3 Bft)
20.05.2015 02:22 8,3 C 7,8 C 83 % 1009,8 hPa 0,0 l/m 0 min 0 min 0 W/m 10,5 km/h (2 Bft)
20.05.2015 02:24 8,3 C 7,8 C 83 % 1009,7 hPa 0,0 l/m 0 min 0 min 0 W/m 14,6 km/h (3 Bft)
20.05.2015 02:26 8,2 C 7,8 C 83 % 1009,8 hPa 0,0 l/m 0 min 0 min 0 W/m 16,7 km/h (3 Bft)
20.05.2015 02:28 8,2 C 7,8 C 83 % 1009,8 hPa 0,0 l/m 0 min 0 min 0 W/m 16,7 km/h (3 Bft)
20.05.2015 02:30 8,2 C 7,8 C 84 % 1009,8 hPa 0,0 l/m 0 min 0 min 0 W/m 16,7 km/h (3 Bft)
20.05.2015 02:32 8,2 C 7,8 C 84 % 1009,7 hPa 0,0 l/m 0 min 0 min 0 W/m 14,6 km/h (3 Bft)
20.05.2015 02:34 8,2 C 7,2 C 84 % 1009,7 hPa 0,0 l/m 0 min 0 min 0 W/m 14,6 km/h (3 Bft)
20.05.2015 02:36 8,1 C 7,2 C 84 % 1009,7 hPa 0,0 l/m 0 min 0 min 0 W/m 18,8 km/h (3 Bft)
20.05.2015 02:38 8,1 C 7,2 C 84 % 1009,7 hPa 0,0 l/m 0 min 0 min 0 W/m 14,6 km/h (3 Bft)
20.05.2015 02:40 8,1 C 7,2 C 84 % 1009,7 hPa 0,0 l/m 0 min 0 min 0 W/m 12,6 km/h (3 Bft)
20.05.2015 02:42 8,1 C 7,2 C 84 % 1009,7 hPa 0,0 l/m 0 min 0 min 0 W/m 16,7 km/h (3 Bft)
20.05.2015 02:44 8,1 C 7,2 C 84 % 1009,7 hPa 0,0 l/m 0 min 0 min 0 W/m 12,6 km/h (3 Bft)
20.05.2015 02:46 8,1 C 7,2 C 84 % 1009,6 hPa 0,0 l/m 0 min 0 min 0 W/m 12,6 km/h (3 Bft)
20.05.2015 02:48 8,1 C 7,2 C 84 % 1009,6 hPa 0,0 l/m 0 min 0 min 0 W/m 12,6 km/h (3 Bft)
20.05.2015 02:50 8,0 C 7,2 C 84 % 1009,7 hPa 0,0 l/m 0 min 0 min 0 W/m 10,5 km/h (2 Bft)
20.05.2015 02:52 8,0 C 7,2 C 84 % 1009,7 hPa 0,0 l/m 0 min 0 min 0 W/m 12,6 km/h (3 Bft)
20.05.2015 02:54 8,0 C 7,2 C 84 % 1009,7 hPa 0,0 l/m 0 min 0 min 0 W/m 12,6 km/h (3 Bft)
20.05.2015 02:56 7,9 C 7,2 C 84 % 1009,6 hPa 0,0 l/m 0 min 0 min 0 W/m 14,6 km/h (3 Bft)
20.05.2015 02:58 7,9 C 7,2 C 84 % 1009,6 hPa 0,0 l/m 0 min 0 min 0 W/m 16,7 km/h (3 Bft)
20.05.2015 03:00 7,9 C 7,2 C 84 % 1009,6 hPa 0,0 l/m 0 min 0 min 0 W/m 16,7 km/h (3 Bft)
20.05.2015 03:02 7,9 C 7,2 C 84 % 1009,6 hPa 0,0 l/m 0 min 0 min 0 W/m 16,7 km/h (3 Bft)
20.05.2015 03:04 7,9 C 7,2 C 84 % 1009,7 hPa 0,0 l/m 0 min 0 min 0 W/m 14,6 km/h (3 Bft)
20.05.2015 03:06 7,9 C 7,2 C 84 % 1009,7 hPa 0,0 l/m 0 min 0 min 0 W/m 14,6 km/h (3 Bft)
20.05.2015 03:08 7,9 C 7,2 C 84 % 1009,6 hPa 0,0 l/m 0 min 0 min 0 W/m 10,5 km/h (2 Bft)
20.05.2015 03:10 7,8 C 7,2 C 84 % 1009,7 hPa 0,0 l/m 0 min 0 min 0 W/m 14,6 km/h (3 Bft)
20.05.2015 03:12 7,8 C 7,2 C 84 % 1009,8 hPa 0,0 l/m 0 min 0 min 0 W/m 10,5 km/h (2 Bft)
20.05.2015 03:14 7,8 C 7,2 C 84 % 1009,9 hPa 0,0 l/m 0 min 0 min 0 W/m 12,6 km/h (3 Bft)
20.05.2015 03:16 7,8 C 7,2 C 84 % 1009,9 hPa 0,0 l/m 0 min 0 min 0 W/m 10,5 km/h (2 Bft)
20.05.2015 03:18 7,8 C 7,2 C 84 % 1010,0 hPa 0,0 l/m 0 min 0 min 0 W/m 10,5 km/h (2 Bft)
20.05.2015 03:20 7,8 C 7,2 C 84 % 1009,9 hPa 0,0 l/m 0 min 0 min 0 W/m 8,4 km/h (2 Bft)
20.05.2015 03:22 7,8 C 7,2 C 84 % 1009,9 hPa 0,0 l/m 0 min 0 min 0 W/m 8,4 km/h (2 Bft)
20.05.2015 03:24 7,8 C 7,2 C 84 % 1010,0 hPa 0,0 l/m 0 min 0 min 0 W/m 8,4 km/h (2 Bft)
20.05.2015 03:26 7,7 C 7,2 C 84 % 1009,9 hPa 0,0 l/m 0 min 0 min 0 W/m 10,5 km/h (2 Bft)
20.05.2015 03:28 7,7 C 7,2 C 84 % 1010,0 hPa 0,0 l/m 0 min 0 min 0 W/m 8,4 km/h (2 Bft)
20.05.2015 03:30 7,7 C 7,2 C 84 % 1010,0 hPa 0,0 l/m 0 min 0 min 0 W/m 10,5 km/h (2 Bft)
20.05.2015 03:32 7,7 C 7,2 C 84 % 1010,0 hPa 0,0 l/m 0 min 0 min 0 W/m 8,4 km/h (2 Bft)
20.05.2015 03:34 7,7 C 7,2 C 84 % 1010,0 hPa 0,0 l/m 0 min 0 min 0 W/m 10,5 km/h (2 Bft)
20.05.2015 03:36 7,7 C 7,2 C 85 % 1010,0 hPa 0,0 l/m 0 min 0 min 0 W/m 10,5 km/h (2 Bft)
20.05.2015 03:38 7,6 C 7,2 C 85 % 1010,0 hPa 0,0 l/m 0 min 0 min 0 W/m 10,5 km/h (2 Bft)
20.05.2015 03:40 7,6 C 7,2 C 85 % 1009,9 hPa 0,0 l/m 0 min 0 min 0 W/m 10,5 km/h (2 Bft)
20.05.2015 03:42 7,6 C 7,2 C 85 % 1010,0 hPa 0,0 l/m 0 min 0 min 0 W/m 10,5 km/h (2 Bft)
20.05.2015 03:44 7,6 C 7,2 C 85 % 1010,0 hPa 0,0 l/m 0 min 0 min 0 W/m 8,4 km/h (2 Bft)
20.05.2015 03:46 7,6 C 7,2 C 85 % 1010,0 hPa 0,0 l/m 0 min 0 min 0 W/m 6,3 km/h (2 Bft)
20.05.2015 03:48 7,6 C 7,2 C 85 % 1010,1 hPa 0,0 l/m 0 min 0 min 0 W/m 10,5 km/h (2 Bft)
20.05.2015 03:50 7,5 C 7,2 C 85 % 1010,0 hPa 0,0 l/m 0 min 0 min 0 W/m 6,3 km/h (2 Bft)
20.05.2015 03:52 7,5 C 7,2 C 85 % 1010,0 hPa 0,0 l/m 0 min 0 min 0 W/m 6,3 km/h (2 Bft)
20.05.2015 03:54 7,5 C 7,2 C 85 % 1010,1 hPa 0,0 l/m 0 min 0 min 0 W/m 6,3 km/h (2 Bft)
20.05.2015 03:56 7,4 C 6,7 C 85 % 1010,0 hPa 0,0 l/m 0 min 0 min 0 W/m 8,4 km/h (2 Bft)
20.05.2015 03:58 7,4 C 6,7 C 85 % 1010,0 hPa 0,0 l/m 0 min 0 min 0 W/m 6,3 km/h (2 Bft)
20.05.2015 04:00 7,4 C 6,7 C 85 % 1010,0 hPa 0,0 l/m 0 min 0 min 0 W/m 8,4 km/h (2 Bft)
20.05.2015 04:02 7,4 C 6,7 C 86 % 1010,0 hPa 0,0 l/m 0 min 0 min 0 W/m 10,5 km/h (2 Bft)
20.05.2015 04:04 7,4 C 6,7 C 86 % 1010,0 hPa 0,0 l/m 0 min 0 min 0 W/m 8,4 km/h (2 Bft)
20.05.2015 04:06 7,4 C 6,7 C 86 % 1010,1 hPa 0,0 l/m 0 min 0 min 0 W/m 12,6 km/h (3 Bft)
20.05.2015 04:08 7,3 C 6,7 C 86 % 1010,1 hPa 0,0 l/m 0 min 0 min 0 W/m 8,4 km/h (2 Bft)
20.05.2015 04:10 7,3 C 6,7 C 86 % 1010,2 hPa 0,0 l/m 0 min 0 min 0 W/m 6,3 km/h (2 Bft)
20.05.2015 04:12 7,3 C 6,7 C 86 % 1010,2 hPa 0,0 l/m 0 min 0 min 0 W/m 8,4 km/h (2 Bft)
20.05.2015 04:14 7,2 C 6,7 C 86 % 1010,2 hPa 0,0 l/m 0 min 0 min 0 W/m 10,5 km/h (2 Bft)
20.05.2015 04:16 7,2 C 6,7 C 86 % 1010,2 hPa 0,0 l/m 0 min 0 min 0 W/m 12,6 km/h (3 Bft)
20.05.2015 04:18 7,2 C 6,7 C 86 % 1010,2 hPa 0,0 l/m 0 min 0 min 0 W/m 12,6 km/h (3 Bft)
20.05.2015 04:20 7,2 C 6,7 C 86 % 1010,2 hPa 0,0 l/m 0 min 0 min 0 W/m 10,5 km/h (2 Bft)
20.05.2015 04:22 7,2 C 6,7 C 86 % 1010,2 hPa 0,0 l/m 0 min 0 min 0 W/m 8,4 km/h (2 Bft)
20.05.2015 04:24 7,1 C 6,7 C 86 % 1010,2 hPa 0,0 l/m 0 min 0 min 0 W/m 8,4 km/h (2 Bft)
20.05.2015 04:26 7,1 C 6,7 C 86 % 1010,3 hPa 0,0 l/m 0 min 0 min 0 W/m 12,6 km/h (3 Bft)
20.05.2015 04:28 7,1 C 6,7 C 87 % 1010,3 hPa 0,0 l/m 0 min 0 min 0 W/m 10,5 km/h (2 Bft)
20.05.2015 04:30 7,1 C 6,7 C 86 % 1010,2 hPa 0,0 l/m 0 min 0 min 0 W/m 18,8 km/h (3 Bft)
20.05.2015 04:32 7,1 C 6,7 C 87 % 1010,3 hPa 0,0 l/m 0 min 0 min 0 W/m 12,6 km/h (3 Bft)
20.05.2015 04:34 7,1 C 6,7 C 87 % 1010,4 hPa 0,0 l/m 0 min 0 min 0 W/m 12,6 km/h (3 Bft)
20.05.2015 04:36 7,1 C 6,7 C 87 % 1010,4 hPa 0,0 l/m 0 min 0 min 0 W/m 14,6 km/h (3 Bft)
20.05.2015 04:38 7,0 C 6,7 C 87 % 1010,4 hPa 0,0 l/m 0 min 0 min 0 W/m 14,6 km/h (3 Bft)
20.05.2015 04:40 7,0 C 6,7 C 87 % 1010,4 hPa 0,0 l/m 0 min 0 min 0 W/m 12,6 km/h (3 Bft)
20.05.2015 04:42 7,0 C 6,7 C 87 % 1010,4 hPa 0,0 l/m 0 min 0 min 0 W/m 14,6 km/h (3 Bft)
20.05.2015 04:44 7,0 C 6,7 C 88 % 1010,4 hPa 0,0 l/m 0 min 0 min 0 W/m 12,6 km/h (3 Bft)
20.05.2015 04:46 7,0 C 6,7 C 88 % 1010,4 hPa 0,0 l/m 0 min 0 min 0 W/m 8,4 km/h (2 Bft)
20.05.2015 04:48 7,0 C 6,7 C 88 % 1010,5 hPa 0,0 l/m 0 min 0 min 0 W/m 6,3 km/h (2 Bft)
20.05.2015 04:50 7,0 C 6,7 C 88 % 1010,4 hPa 0,0 l/m 0 min 0 min 0 W/m 12,6 km/h (3 Bft)
20.05.2015 04:52 7,0 C 6,7 C 88 % 1010,4 hPa 0,0 l/m 0 min 0 min 0 W/m 12,6 km/h (3 Bft)
20.05.2015 04:54 7,0 C 6,7 C 88 % 1010,4 hPa 0,0 l/m 0 min 0 min 0 W/m 10,5 km/h (2 Bft)
20.05.2015 04:56 7,0 C 6,7 C 88 % 1010,4 hPa 0,0 l/m 0 min 0 min 0 W/m 6,3 km/h (2 Bft)
20.05.2015 04:58 6,9 C 6,7 C 88 % 1010,4 hPa 0,0 l/m 0 min 0 min 0 W/m 10,5 km/h (2 Bft)
20.05.2015 05:00 6,9 C 6,7 C 88 % 1010,4 hPa 0,0 l/m 0 min 0 min 0 W/m 12,6 km/h (3 Bft)
20.05.2015 05:02 6,9 C 6,7 C 88 % 1010,5 hPa 0,0 l/m 0 min 0 min 0 W/m 10,5 km/h (2 Bft)
20.05.2015 05:04 6,9 C 6,7 C 88 % 1010,5 hPa 0,0 l/m 0 min 0 min 0 W/m 18,8 km/h (3 Bft)
20.05.2015 05:06 7,0 C 6,7 C 88 % 1010,5 hPa 0,0 l/m 0 min 0 min 0 W/m 14,6 km/h (3 Bft)
20.05.2015 05:08 7,0 C 6,7 C 88 % 1010,4 hPa 0,0 l/m 0 min 0 min 0 W/m 16,7 km/h (3 Bft)
20.05.2015 05:10 7,0 C 7,2 C 88 % 1010,4 hPa 0,0 l/m 0 min 0 min 0 W/m 14,6 km/h (3 Bft)
20.05.2015 05:12 7,0 C 7,2 C 88 % 1010,4 hPa 0,0 l/m 0 min 0 min 0 W/m 10,5 km/h (2 Bft)
20.05.2015 05:14 7,0 C 7,2 C 88 % 1010,4 hPa 0,0 l/m 0 min 0 min 0 W/m 14,6 km/h (3 Bft)
20.05.2015 05:16 7,0 C 7,2 C 88 % 1010,4 hPa 0,0 l/m 0 min 0 min 0 W/m 14,6 km/h (3 Bft)
20.05.2015 05:18 7,1 C 7,2 C 88 % 1010,4 hPa 0,0 l/m 0 min 0 min 0 W/m 12,6 km/h (3 Bft)
20.05.2015 05:20 7,1 C 7,2 C 89 % 1010,5 hPa 0,0 l/m 0 min 0 min 0 W/m 12,6 km/h (3 Bft)
20.05.2015 05:22 7,1 C 7,2 C 89 % 1010,4 hPa 0,0 l/m 0 min 0 min 0 W/m 14,6 km/h (3 Bft)
20.05.2015 05:24 7,2 C 7,2 C 89 % 1010,4 hPa 0,0 l/m 0 min 0 min 0 W/m 23,0 km/h (4 Bft)
20.05.2015 05:26 7,2 C 7,2 C 89 % 1010,4 hPa 0,0 l/m 0 min 0 min 0 W/m 16,7 km/h (3 Bft)
20.05.2015 05:28 7,2 C 7,2 C 89 % 1010,4 hPa 0,0 l/m 0 min 0 min 0 W/m 16,7 km/h (3 Bft)
20.05.2015 05:30 7,2 C 7,2 C 89 % 1010,4 hPa 0,0 l/m 0 min 0 min 0 W/m 18,8 km/h (3 Bft)
20.05.2015 05:32 7,2 C 7,2 C 89 % 1010,4 hPa 0,0 l/m 0 min 0 min 0 W/m 18,8 km/h (3 Bft)
20.05.2015 05:34 7,3 C 7,2 C 89 % 1010,4 hPa 0,0 l/m 0 min 0 min 0 W/m 16,7 km/h (3 Bft)
20.05.2015 05:36 7,3 C 7,2 C 89 % 1010,4 hPa 0,0 l/m 0 min 0 min 5 W/m 16,7 km/h (3 Bft)
20.05.2015 05:38 7,3 C 7,2 C 88 % 1010,4 hPa 0,0 l/m 0 min 0 min 5 W/m 18,8 km/h (3 Bft)
20.05.2015 05:40 7,3 C 7,2 C 88 % 1010,4 hPa 0,0 l/m 0 min 0 min 5 W/m 16,7 km/h (3 Bft)
20.05.2015 05:42 7,3 C 7,2 C 88 % 1010,3 hPa 0,0 l/m 0 min 0 min 7 W/m 16,7 km/h (3 Bft)
20.05.2015 05:44 7,3 C 7,2 C 88 % 1010,4 hPa 0,0 l/m 0 min 0 min 7 W/m 16,7 km/h (3 Bft)
20.05.2015 05:46 7,3 C 7,2 C 88 % 1010,3 hPa 0,0 l/m 0 min 0 min 9 W/m 14,6 km/h (3 Bft)
20.05.2015 05:48 7,3 C 7,2 C 88 % 1010,4 hPa 0,0 l/m 0 min 0 min 10 W/m 12,6 km/h (3 Bft)
20.05.2015 05:50 7,4 C 7,2 C 88 % 1010,4 hPa 0,0 l/m 0 min 0 min 11 W/m 14,6 km/h (3 Bft)
20.05.2015 05:52 7,4 C 6,7 C 88 % 1010,4 hPa 0,0 l/m 0 min 0 min 12 W/m 16,7 km/h (3 Bft)
20.05.2015 05:54 7,4 C 6,7 C 88 % 1010,4 hPa 0,0 l/m 0 min 0 min 12 W/m 16,7 km/h (3 Bft)
20.05.2015 05:56 7,4 C 6,7 C 88 % 1010,4 hPa 0,0 l/m 0 min 0 min 14 W/m 16,7 km/h (3 Bft)
20.05.2015 05:58 7,3 C 6,7 C 88 % 1010,4 hPa 0,0 l/m 0 min 0 min 16 W/m 8,4 km/h (2 Bft)
20.05.2015 06:00 7,3 C 6,7 C 88 % 1010,5 hPa 0,0 l/m 0 min 0 min 16 W/m 16,7 km/h (3 Bft)
20.05.2015 06:02 7,3 C 6,7 C 88 % 1010,5 hPa 0,0 l/m 0 min 0 min 18 W/m 14,6 km/h (3 Bft)
20.05.2015 06:06 7,3 C 6,7 C 88 % 1010,5 hPa 0,0 l/m 0 min 0 min 20 W/m 14,6 km/h (3 Bft)
20.05.2015 06:08 7,3 C 6,7 C 88 % 1010,5 hPa 0,0 l/m 0 min 0 min 21 W/m 12,6 km/h (3 Bft)
20.05.2015 06:10 7,3 C 6,7 C 88 % 1010,5 hPa 0,0 l/m 0 min 0 min 23 W/m 12,6 km/h (3 Bft)
20.05.2015 06:12 7,3 C 6,7 C 87 % 1010,5 hPa 0,0 l/m 0 min 0 min 26 W/m 12,6 km/h (3 Bft)
20.05.2015 06:14 7,3 C 6,7 C 87 % 1010,6 hPa 0,0 l/m 0 min 0 min 30 W/m 10,5 km/h (2 Bft)
20.05.2015 06:16 7,3 C 6,7 C 87 % 1010,5 hPa 0,0 l/m 0 min 0 min 33 W/m 14,6 km/h (3 Bft)
20.05.2015 06:18 7,3 C 6,7 C 87 % 1010,5 hPa 0,0 l/m 0 min 0 min 36 W/m 20,9 km/h (4 Bft)
20.05.2015 06:20 7,3 C 6,7 C 88 % 1010,5 hPa 0,0 l/m 0 min 0 min 42 W/m 18,8 km/h (3 Bft)
20.05.2015 06:22 7,2 C 6,7 C 88 % 1010,6 hPa 0,0 l/m 2 min 0 min 45 W/m 10,5 km/h (2 Bft)
20.05.2015 06:24 7,2 C 6,7 C 88 % 1010,6 hPa 0,0 l/m 2 min 0 min 47 W/m 16,7 km/h (3 Bft)
20.05.2015 06:26 7,2 C 6,7 C 88 % 1010,6 hPa 0,0 l/m 2 min 0 min 50 W/m 12,6 km/h (3 Bft)
20.05.2015 06:28 7,2 C 6,7 C 88 % 1010,7 hPa 0,0 l/m 2 min 0 min 53 W/m 16,7 km/h (3 Bft)
20.05.2015 06:30 7,2 C 6,7 C 88 % 1010,7 hPa 0,0 l/m 2 min 0 min 56 W/m 20,9 km/h (4 Bft)
20.05.2015 06:32 7,2 C 6,7 C 88 % 1010,6 hPa 0,0 l/m 2 min 0 min 60 W/m 14,6 km/h (3 Bft)
20.05.2015 06:34 7,2 C 6,7 C 88 % 1010,6 hPa 0,0 l/m 2 min 0 min 64 W/m 20,9 km/h (4 Bft)
20.05.2015 06:36 7,2 C 6,7 C 88 % 1010,6 hPa 0,0 l/m 2 min 0 min 69 W/m 16,7 km/h (3 Bft)
20.05.2015 06:38 7,2 C 6,7 C 88 % 1010,7 hPa 0,0 l/m 2 min 0 min 73 W/m 16,7 km/h (3 Bft)
20.05.2015 06:40 7,3 C 6,7 C 88 % 1010,6 hPa 0,0 l/m 2 min 0 min 78 W/m 14,6 km/h (3 Bft)
20.05.2015 06:42 7,3 C 7,2 C 88 % 1010,7 hPa 0,0 l/m 2 min 0 min 81 W/m 18,8 km/h (3 Bft)
20.05.2015 06:44 7,3 C 7,2 C 88 % 1010,7 hPa 0,0 l/m 2 min 0 min 77 W/m 16,7 km/h (3 Bft)
20.05.2015 06:46 7,3 C 7,2 C 88 % 1010,7 hPa 0,0 l/m 2 min 0 min 89 W/m 18,8 km/h (3 Bft)
20.05.2015 06:48 7,3 C 7,2 C 88 % 1010,7 hPa 0,0 l/m 2 min 0 min 97 W/m 16,7 km/h (3 Bft)
20.05.2015 06:50 7,3 C 7,2 C 88 % 1010,7 hPa 0,0 l/m 2 min 0 min 103 W/m 16,7 km/h (3 Bft)
20.05.2015 06:52 7,4 C 7,2 C 88 % 1010,8 hPa 0,0 l/m 2 min 0 min 108 W/m 14,6 km/h (3 Bft)
20.05.2015 06:54 7,4 C 7,2 C 88 % 1010,7 hPa 0,0 l/m 2 min 0 min 113 W/m 16,7 km/h (3 Bft)
20.05.2015 06:56 7,4 C 7,2 C 88 % 1010,7 hPa 0,0 l/m 2 min 0 min 118 W/m 25,1 km/h (4 Bft)
20.05.2015 06:58 7,5 C 7,2 C 88 % 1010,7 hPa 0,0 l/m 2 min 0 min 124 W/m 23,0 km/h (4 Bft)
20.05.2015 07:00 7,5 C 7,2 C 88 % 1010,7 hPa 0,0 l/m 2 min 0 min 128 W/m 18,8 km/h (3 Bft)
20.05.2015 07:02 7,6 C 7,2 C 88 % 1010,7 hPa 0,0 l/m 2 min 0 min 133 W/m 18,8 km/h (3 Bft)
20.05.2015 07:04 7,6 C 7,2 C 88 % 1010,7 hPa 0,0 l/m 2 min 0 min 139 W/m 18,8 km/h (3 Bft)
20.05.2015 07:06 7,7 C 7,2 C 88 % 1010,7 hPa 0,0 l/m 2 min 0 min 144 W/m 23,0 km/h (4 Bft)
20.05.2015 07:08 7,7 C 7,2 C 88 % 1010,7 hPa 0,0 l/m 2 min 0 min 148 W/m 29,3 km/h (5 Bft)
20.05.2015 07:10 7,7 C 7,2 C 88 % 1010,7 hPa 0,0 l/m 2 min 0 min 153 W/m 23,0 km/h (4 Bft)
20.05.2015 07:12 7,8 C 7,2 C 88 % 1010,8 hPa 0,0 l/m 2 min 0 min 158 W/m 25,1 km/h (4 Bft)
20.05.2015 07:14 7,8 C 7,2 C 88 % 1010,8 hPa 0,0 l/m 2 min 0 min 164 W/m 14,6 km/h (3 Bft)
20.05.2015 07:16 7,8 C 7,2 C 88 % 1010,8 hPa 0,0 l/m 2 min 0 min 169 W/m 16,7 km/h (3 Bft)
20.05.2015 07:18 7,9 C 7,2 C 88 % 1010,8 hPa 0,0 l/m 2 min 0 min 174 W/m 18,8 km/h (3 Bft)
20.05.2015 07:20 7,9 C 7,2 C 88 % 1010,8 hPa 0,0 l/m 2 min 0 min 179 W/m 16,7 km/h (3 Bft)
20.05.2015 07:22 7,9 C 7,2 C 88 % 1010,9 hPa 0,0 l/m 2 min 0 min 186 W/m 25,1 km/h (4 Bft)
20.05.2015 07:24 8,0 C 7,2 C 87 % 1010,9 hPa 0,0 l/m 2 min 0 min 192 W/m 16,7 km/h (3 Bft)
20.05.2015 07:26 8,1 C 7,2 C 87 % 1011,0 hPa 0,0 l/m 2 min 0 min 195 W/m 16,7 km/h (3 Bft)
20.05.2015 07:28 8,1 C 7,2 C 87 % 1011,0 hPa 0,0 l/m 2 min 0 min 198 W/m 16,7 km/h (3 Bft)
20.05.2015 07:30 8,1 C 7,2 C 87 % 1011,1 hPa 0,0 l/m 2 min 0 min 202 W/m 14,6 km/h (3 Bft)
20.05.2015 07:32 8,2 C 7,2 C 87 % 1011,0 hPa 0,0 l/m 2 min 0 min 208 W/m 25,1 km/h (4 Bft)
20.05.2015 07:34 8,2 C 7,2 C 87 % 1011,0 hPa 0,0 l/m 2 min 0 min 213 W/m 25,1 km/h (4 Bft)
20.05.2015 07:36 8,2 C 7,8 C 87 % 1011,0 hPa 0,0 l/m 2 min 0 min 218 W/m 20,9 km/h (4 Bft)
20.05.2015 07:38 8,2 C 7,8 C 87 % 1011,0 hPa 0,0 l/m 2 min 0 min 223 W/m 25,1 km/h (4 Bft)
20.05.2015 07:40 8,3 C 7,8 C 87 % 1011,1 hPa 0,0 l/m 2 min 0 min 229 W/m 16,7 km/h (3 Bft)
20.05.2015 07:42 8,3 C 7,8 C 87 % 1011,1 hPa 0,0 l/m 2 min 0 min 233 W/m 16,7 km/h (3 Bft)
20.05.2015 07:44 8,3 C 7,8 C 86 % 1011,1 hPa 0,0 l/m 2 min 0 min 237 W/m 16,7 km/h (3 Bft)
20.05.2015 07:46 8,4 C 7,8 C 86 % 1011,1 hPa 0,0 l/m 2 min 0 min 242 W/m 20,9 km/h (4 Bft)
20.05.2015 07:48 8,4 C 7,8 C 86 % 1011,1 hPa 0,0 l/m 2 min 0 min 248 W/m 33,5 km/h (5 Bft)
20.05.2015 07:50 8,4 C 7,8 C 86 % 1011,1 hPa 0,0 l/m 2 min 0 min 253 W/m 25,1 km/h (4 Bft)
20.05.2015 07:52 8,5 C 7,8 C 86 % 1011,1 hPa 0,0 l/m 2 min 0 min 258 W/m 23,0 km/h (4 Bft)
20.05.2015 07:54 8,6 C 7,8 C 86 % 1011,1 hPa 0,0 l/m 2 min 0 min 262 W/m 33,5 km/h (5 Bft)
20.05.2015 07:56 8,6 C 7,8 C 85 % 1011,1 hPa 0,0 l/m 2 min 0 min 268 W/m 23,0 km/h (4 Bft)
20.05.2015 07:58 8,6 C 7,8 C 85 % 1011,2 hPa 0,0 l/m 2 min 0 min 272 W/m 20,9 km/h (4 Bft)
20.05.2015 08:00 8,7 C 7,8 C 85 % 1011,3 hPa 0,0 l/m 2 min 0 min 278 W/m 25,1 km/h (4 Bft)
20.05.2015 08:02 8,7 C 7,8 C 85 % 1011,3 hPa 0,0 l/m 2 min 0 min 285 W/m 27,2 km/h (4 Bft)
20.05.2015 08:04 8,7 C 7,8 C 85 % 1011,4 hPa 0,0 l/m 2 min 0 min 290 W/m 20,9 km/h (4 Bft)
20.05.2015 08:06 8,8 C 7,8 C 85 % 1011,4 hPa 0,0 l/m 2 min 0 min 294 W/m 25,1 km/h (4 Bft)
20.05.2015 08:08 8,8 C 7,8 C 85 % 1011,4 hPa 0,0 l/m 2 min 0 min 297 W/m 23,0 km/h (4 Bft)
20.05.2015 08:10 8,9 C 7,8 C 84 % 1011,4 hPa 0,0 l/m 2 min 0 min 304 W/m 23,0 km/h (4 Bft)
20.05.2015 08:12 8,9 C 7,8 C 84 % 1011,5 hPa 0,0 l/m 2 min 0 min 309 W/m 10,5 km/h (2 Bft)
20.05.2015 08:14 8,9 C 7,8 C 84 % 1011,4 hPa 0,0 l/m 2 min 0 min 315 W/m 14,6 km/h (3 Bft)
20.05.2015 08:16 9,0 C 7,8 C 84 % 1011,4 hPa 0,0 l/m 2 min 0 min 316 W/m 31,4 km/h (5 Bft)
20.05.2015 08:18 9,0 C 7,8 C 84 % 1011,5 hPa 0,0 l/m 2 min 0 min 327 W/m 25,1 km/h (4 Bft)
20.05.2015 08:20 9,1 C 7,8 C 84 % 1011,5 hPa 0,0 l/m 2 min 0 min 334 W/m 27,2 km/h (4 Bft)
20.05.2015 08:22 9,1 C 7,8 C 83 % 1011,5 hPa 0,0 l/m 2 min 0 min 340 W/m 25,1 km/h (4 Bft)
20.05.2015 08:24 9,1 C 7,8 C 83 % 1011,6 hPa 0,0 l/m 2 min 0 min 345 W/m 18,8 km/h (3 Bft)
20.05.2015 08:26 9,2 C 8,3 C 83 % 1011,6 hPa 0,0 l/m 2 min 0 min 350 W/m 25,1 km/h (4 Bft)
20.05.2015 08:28 9,2 C 8,3 C 83 % 1011,6 hPa 0,0 l/m 2 min 0 min 354 W/m 20,9 km/h (4 Bft)
20.05.2015 08:30 9,2 C 8,3 C 83 % 1011,6 hPa 0,0 l/m 2 min 0 min 359 W/m 18,8 km/h (3 Bft)
20.05.2015 08:32 9,3 C 8,3 C 83 % 1011,6 hPa 0,0 l/m 2 min 0 min 364 W/m 16,7 km/h (3 Bft)
20.05.2015 08:34 9,4 C 8,3 C 82 % 1011,7 hPa 0,0 l/m 2 min 0 min 368 W/m 16,7 km/h (3 Bft)
20.05.2015 08:36 9,4 C 8,3 C 82 % 1011,6 hPa 0,0 l/m 2 min 0 min 374 W/m 23,0 km/h (4 Bft)
20.05.2015 08:38 9,5 C 8,3 C 82 % 1011,8 hPa 0,0 l/m 2 min 0 min 381 W/m 20,9 km/h (4 Bft)
20.05.2015 08:40 9,6 C 8,3 C 82 % 1011,8 hPa 0,0 l/m 2 min 0 min 385 W/m 20,9 km/h (4 Bft)
20.05.2015 08:42 9,6 C 8,3 C 81 % 1011,8 hPa 0,0 l/m 2 min 0 min 391 W/m 18,8 km/h (3 Bft)
20.05.2015 08:44 9,7 C 8,3 C 81 % 1011,8 hPa 0,0 l/m 2 min 0 min 398 W/m 23,0 km/h (4 Bft)
20.05.2015 08:46 9,8 C 8,3 C 81 % 1011,8 hPa 0,0 l/m 2 min 0 min 406 W/m 18,8 km/h (3 Bft)
20.05.2015 08:48 9,9 C 8,3 C 81 % 1011,8 hPa 0,0 l/m 2 min 0 min 402 W/m 14,6 km/h (3 Bft)
20.05.2015 08:50 10,0 C 8,3 C 80 % 1011,9 hPa 0,0 l/m 2 min 0 min 409 W/m 18,8 km/h (3 Bft)
20.05.2015 08:52 10,1 C 8,3 C 80 % 1011,9 hPa 0,0 l/m 2 min 0 min 418 W/m 20,9 km/h (4 Bft)
20.05.2015 08:54 10,2 C 8,9 C 79 % 1011,9 hPa 0,0 l/m 2 min 0 min 423 W/m 18,8 km/h (3 Bft)
20.05.2015 08:56 10,2 C 8,9 C 79 % 1011,9 hPa 0,0 l/m 2 min 0 min 427 W/m 18,8 km/h (3 Bft)
20.05.2015 08:58 10,3 C 8,9 C 79 % 1011,9 hPa 0,0 l/m 2 min 0 min 434 W/m 14,6 km/h (3 Bft)
20.05.2015 09:00 10,4 C 8,9 C 79 % 1012,0 hPa 0,0 l/m 2 min 0 min 436 W/m 16,7 km/h (3 Bft)
20.05.2015 09:02 10,5 C 8,9 C 79 % 1012,0 hPa 0,0 l/m 2 min 0 min 444 W/m 18,8 km/h (3 Bft)
20.05.2015 09:04 10,6 C 8,9 C 78 % 1012,0 hPa 0,0 l/m 2 min 0 min 450 W/m 14,6 km/h (3 Bft)
20.05.2015 09:06 10,7 C 8,9 C 78 % 1012,0 hPa 0,0 l/m 2 min 0 min 454 W/m 23,0 km/h (4 Bft)
20.05.2015 09:08 10,8 C 8,9 C 77 % 1012,1 hPa 0,0 l/m 2 min 0 min 461 W/m 16,7 km/h (3 Bft)
20.05.2015 09:10 10,9 C 8,9 C 77 % 1012,1 hPa 0,0 l/m 2 min 0 min 464 W/m 12,6 km/h (3 Bft)
20.05.2015 09:12 11,0 C 8,9 C 77 % 1012,1 hPa 0,0 l/m 2 min 0 min 468 W/m 23,0 km/h (4 Bft)
20.05.2015 09:14 11,1 C 8,9 C 76 % 1012,1 hPa 0,0 l/m 2 min 0 min 476 W/m 20,9 km/h (4 Bft)
20.05.2015 09:16 11,2 C 8,9 C 76 % 1012,1 hPa 0,0 l/m 2 min 0 min 485 W/m 18,8 km/h (3 Bft)
20.05.2015 09:18 11,3 C 8,9 C 75 % 1012,1 hPa 0,0 l/m 2 min 0 min 494 W/m 23,0 km/h (4 Bft)
20.05.2015 09:20 11,3 C 9,4 C 75 % 1012,1 hPa 0,0 l/m 2 min 0 min 520 W/m 23,0 km/h (4 Bft)
20.05.2015 09:22 11,4 C 9,4 C 75 % 1012,2 hPa 0,0 l/m 2 min 0 min 526 W/m 12,6 km/h (3 Bft)
20.05.2015 09:24 11,5 C 9,4 C 75 % 1012,2 hPa 0,0 l/m 2 min 0 min 548 W/m 16,7 km/h (3 Bft)
20.05.2015 09:26 11,6 C 10,0 C 75 % 1012,2 hPa 0,0 l/m 2 min 0 min 568 W/m 20,9 km/h (4 Bft)
20.05.2015 09:28 11,7 C 10,0 C 74 % 1012,1 hPa 0,0 l/m 2 min 0 min 568 W/m 18,8 km/h (3 Bft)
20.05.2015 09:30 11,7 C 10,0 C 74 % 1012,2 hPa 0,0 l/m 0 min 0 min 161 W/m 18,8 km/h (3 Bft)
20.05.2015 09:32 11,8 C 10,0 C 73 % 1012,2 hPa 0,0 l/m 2 min 0 min 555 W/m 20,9 km/h (4 Bft)
20.05.2015 09:34 11,7 C 10,6 C 73 % 1012,2 hPa 0,0 l/m 2 min 0 min 550 W/m 16,7 km/h (3 Bft)
20.05.2015 09:36 11,8 C 11,7 C 73 % 1012,2 hPa 0,0 l/m 2 min 0 min 545 W/m 18,8 km/h (3 Bft)
20.05.2015 09:38 11,8 C 11,7 C 72 % 1012,3 hPa 0,0 l/m 2 min 0 min 531 W/m 23,0 km/h (4 Bft)
20.05.2015 09:40 11,8 C 11,7 C 72 % 1012,2 hPa 0,0 l/m 0 min 0 min 151 W/m 18,8 km/h (3 Bft)
20.05.2015 09:42 11,8 C 11,7 C 72 % 1012,2 hPa 0,0 l/m 0 min 0 min 211 W/m 20,9 km/h (4 Bft)
20.05.2015 09:44 11,8 C 12,2 C 72 % 1012,2 hPa 0,0 l/m 2 min 0 min 589 W/m 23,0 km/h (4 Bft)
20.05.2015 09:46 11,8 C 12,2 C 72 % 1012,3 hPa 0,0 l/m 2 min 0 min 589 W/m 18,8 km/h (3 Bft)
20.05.2015 09:48 11,9 C 11,7 C 72 % 1012,3 hPa 0,0 l/m 2 min 0 min 591 W/m 20,9 km/h (4 Bft)
20.05.2015 09:50 11,9 C 12,2 C 72 % 1012,3 hPa 0,0 l/m 2 min 0 min 595 W/m 16,7 km/h (3 Bft)
20.05.2015 09:52 12,0 C 12,2 C 72 % 1012,3 hPa 0,0 l/m 2 min 0 min 622 W/m 16,7 km/h (3 Bft)
20.05.2015 09:54 12,1 C 12,2 C 72 % 1012,3 hPa 0,0 l/m 2 min 0 min 655 W/m 18,8 km/h (3 Bft)
20.05.2015 09:56 12,2 C 12,2 C 71 % 1012,3 hPa 0,0 l/m 2 min 0 min 680 W/m 20,9 km/h (4 Bft)
20.05.2015 09:58 12,3 C 11,7 C 70 % 1012,3 hPa 0,0 l/m 2 min 0 min 672 W/m 16,7 km/h (3 Bft)
20.05.2015 10:00 12,4 C 11,7 C 71 % 1012,3 hPa 0,0 l/m 2 min 0 min 664 W/m 20,9 km/h (4 Bft)
20.05.2015 10:02 12,5 C 11,7 C 70 % 1012,4 hPa 0,0 l/m 2 min 0 min 638 W/m 16,7 km/h (3 Bft)
20.05.2015 10:04 12,6 C 11,7 C 70 % 1012,3 hPa 0,0 l/m 2 min 0 min 646 W/m 25,1 km/h (4 Bft)
20.05.2015 10:06 12,7 C 12,2 C 70 % 1012,4 hPa 0,0 l/m 2 min 0 min 653 W/m 25,1 km/h (4 Bft)
20.05.2015 10:08 12,8 C 12,2 C 69 % 1012,4 hPa 0,0 l/m 2 min 0 min 664 W/m 18,8 km/h (3 Bft)
20.05.2015 10:10 12,9 C 12,2 C 69 % 1012,4 hPa 0,0 l/m 2 min 0 min 684 W/m 25,1 km/h (4 Bft)
20.05.2015 10:12 13,0 C 12,2 C 68 % 1012,4 hPa 0,0 l/m 2 min 0 min 697 W/m 20,9 km/h (4 Bft)
20.05.2015 10:14 13,1 C 12,8 C 68 % 1012,4 hPa 0,0 l/m 2 min 0 min 695 W/m 20,9 km/h (4 Bft)
20.05.2015 10:16 13,2 C 12,8 C 67 % 1012,5 hPa 0,0 l/m 2 min 0 min 720 W/m 20,9 km/h (4 Bft)
20.05.2015 10:18 13,2 C 12,2 C 66 % 1012,5 hPa 0,0 l/m 2 min 0 min 721 W/m 20,9 km/h (4 Bft)
20.05.2015 10:20 13,2 C 12,2 C 66 % 1012,5 hPa 0,0 l/m 2 min 0 min 721 W/m 18,8 km/h (3 Bft)
20.05.2015 10:22 13,3 C 12,8 C 66 % 1012,5 hPa 0,0 l/m 2 min 0 min 783 W/m 27,2 km/h (4 Bft)
20.05.2015 10:24 13,3 C 12,8 C 66 % 1012,5 hPa 0,0 l/m 2 min 0 min 808 W/m 20,9 km/h (4 Bft)
20.05.2015 10:26 13,5 C 12,8 C 68 % 1012,5 hPa 0,0 l/m 2 min 0 min 794 W/m 23,0 km/h (4 Bft)
20.05.2015 10:28 13,7 C 12,8 C 67 % 1012,5 hPa 0,0 l/m 2 min 0 min 790 W/m 20,9 km/h (4 Bft)
20.05.2015 10:30 13,8 C 13,3 C 66 % 1012,6 hPa 0,0 l/m 2 min 0 min 831 W/m 18,8 km/h (3 Bft)
20.05.2015 10:32 13,9 C 13,3 C 65 % 1012,6 hPa 0,0 l/m 2 min 0 min 833 W/m 25,1 km/h (4 Bft)
20.05.2015 10:34 13,9 C 13,3 C 65 % 1012,6 hPa 0,0 l/m 2 min 0 min 833 W/m 20,9 km/h (4 Bft)
20.05.2015 10:36 14,0 C 13,3 C 65 % 1012,6 hPa 0,0 l/m 2 min 0 min 833 W/m 14,6 km/h (3 Bft)
20.05.2015 10:38 14,1 C 13,3 C 65 % 1012,6 hPa 0,0 l/m 2 min 0 min 833 W/m 16,7 km/h (3 Bft)
20.05.2015 10:40 14,2 C 13,3 C 65 % 1012,6 hPa 0,0 l/m 2 min 0 min 835 W/m 18,8 km/h (3 Bft)
20.05.2015 10:42 14,2 C 13,9 C 64 % 1012,6 hPa 0,0 l/m 2 min 0 min 898 W/m 23,0 km/h (4 Bft)
20.05.2015 10:44 14,3 C 13,9 C 65 % 1012,6 hPa 0,0 l/m 2 min 0 min 851 W/m 27,2 km/h (4 Bft)
20.05.2015 10:46 14,3 C 13,3 C 65 % 1012,7 hPa 0,0 l/m 0 min 0 min 254 W/m 18,8 km/h (3 Bft)
20.05.2015 10:48 14,3 C 13,3 C 63 % 1012,7 hPa 0,0 l/m 0 min 0 min 199 W/m 20,9 km/h (4 Bft)
20.05.2015 10:50 14,2 C 12,8 C 63 % 1012,7 hPa 0,0 l/m 0 min 0 min 189 W/m 23,0 km/h (4 Bft)
20.05.2015 10:52 14,2 C 12,2 C 63 % 1012,7 hPa 0,0 l/m 0 min 0 min 207 W/m 27,2 km/h (4 Bft)
20.05.2015 10:54 13,9 C 12,2 C 63 % 1012,8 hPa 0,0 l/m 0 min 0 min 235 W/m 23,0 km/h (4 Bft)
20.05.2015 10:56 13,8 C 12,2 C 64 % 1012,8 hPa 0,0 l/m 2 min 0 min 512 W/m 16,7 km/h (3 Bft)
20.05.2015 10:58 13,8 C 12,8 C 65 % 1012,8 hPa 0,0 l/m 2 min 0 min 886 W/m 20,9 km/h (4 Bft)
20.05.2015 11:00 13,8 C 12,8 C 65 % 1012,7 hPa 0,0 l/m 2 min 0 min 701 W/m 20,9 km/h (4 Bft)
20.05.2015 11:02 13,7 C 12,2 C 64 % 1012,8 hPa 0,0 l/m 0 min 0 min 209 W/m 18,8 km/h (3 Bft)
20.05.2015 11:04 13,7 C 12,2 C 65 % 1012,8 hPa 0,0 l/m 0 min 0 min 230 W/m 18,8 km/h (3 Bft)
20.05.2015 11:06 13,6 C 12,2 C 66 % 1012,9 hPa 0,0 l/m 2 min 0 min 414 W/m 14,6 km/h (3 Bft)
20.05.2015 11:08 13,6 C 12,8 C 66 % 1012,9 hPa 0,0 l/m 2 min 0 min 529 W/m 20,9 km/h (4 Bft)
20.05.2015 11:10 13,6 C 12,2 C 66 % 1012,9 hPa 0,0 l/m 0 min 0 min 191 W/m 23,0 km/h (4 Bft)
20.05.2015 11:12 13,4 C 12,2 C 65 % 1012,8 hPa 0,0 l/m 0 min 0 min 171 W/m 18,8 km/h (3 Bft)
20.05.2015 11:14 13,4 C 11,7 C 66 % 1012,9 hPa 0,0 l/m 0 min 0 min 183 W/m 16,7 km/h (3 Bft)
20.05.2015 11:16 13,3 C 11,7 C 66 % 1012,9 hPa 0,0 l/m 0 min 0 min 149 W/m 12,6 km/h (3 Bft)
20.05.2015 11:18 13,2 C 11,7 C 67 % 1012,9 hPa 0,0 l/m 0 min 0 min 220 W/m 14,6 km/h (3 Bft)
20.05.2015 11:20 13,1 C 11,7 C 67 % 1013,0 hPa 0,0 l/m 2 min 0 min 518 W/m 16,7 km/h (3 Bft)
20.05.2015 11:22 13,2 C 12,2 C 68 % 1012,9 hPa 0,0 l/m 2 min 0 min 864 W/m 10,5 km/h (2 Bft)
20.05.2015 11:24 13,2 C 12,8 C 69 % 1012,9 hPa 0,0 l/m 2 min 0 min 898 W/m 12,6 km/h (3 Bft)
20.05.2015 11:26 13,3 C 12,8 C 68 % 1012,9 hPa 0,0 l/m 0 min 0 min 290 W/m 14,6 km/h (3 Bft)
20.05.2015 11:28 13,4 C 12,8 C 67 % 1013,0 hPa 0,0 l/m 0 min 0 min 200 W/m 12,6 km/h (3 Bft)
20.05.2015 11:30 13,4 C 12,8 C 66 % 1013,0 hPa 0,0 l/m 0 min 0 min 173 W/m 25,1 km/h (4 Bft)
20.05.2015 11:32 13,4 C 12,2 C 66 % 1013,1 hPa 0,0 l/m 0 min 0 min 163 W/m 16,7 km/h (3 Bft)
20.05.2015 11:34 13,4 C 12,2 C 66 % 1013,1 hPa 0,0 l/m 0 min 0 min 160 W/m 18,8 km/h (3 Bft)
20.05.2015 11:36 13,3 C 12,2 C 66 % 1013,1 hPa 0,0 l/m 0 min 0 min 163 W/m 12,6 km/h (3 Bft)
20.05.2015 11:38 13,3 C 12,2 C 66 % 1013,1 hPa 0,0 l/m 0 min 0 min 165 W/m 14,6 km/h (3 Bft)
20.05.2015 11:40 13,2 C 11,7 C 66 % 1013,1 hPa 0,0 l/m 0 min 0 min 175 W/m 14,6 km/h (3 Bft)
20.05.2015 11:42 13,2 C 11,7 C 65 % 1013,1 hPa 0,0 l/m 0 min 0 min 182 W/m 14,6 km/h (3 Bft)
20.05.2015 11:44 13,1 C 12,2 C 66 % 1013,1 hPa 0,0 l/m 0 min 0 min 191 W/m 14,6 km/h (3 Bft)
20.05.2015 11:46 13,1 C 11,7 C 65 % 1013,1 hPa 0,0 l/m 0 min 0 min 198 W/m 12,6 km/h (3 Bft)
20.05.2015 11:48 13,0 C 12,2 C 66 % 1013,1 hPa 0,0 l/m 0 min 0 min 221 W/m 12,6 km/h (3 Bft)
20.05.2015 11:50 13,1 C 12,2 C 67 % 1013,1 hPa 0,0 l/m 2 min 0 min 658 W/m 16,7 km/h (3 Bft)
20.05.2015 11:52 13,1 C 12,8 C 67 % 1013,1 hPa 0,0 l/m 2 min 0 min 776 W/m 20,9 km/h (4 Bft)
20.05.2015 11:54 13,2 C 12,8 C 68 % 1013,1 hPa 0,0 l/m 2 min 0 min 837 W/m 8,4 km/h (2 Bft)
20.05.2015 11:56 13,4 C 12,8 C 70 % 1013,0 hPa 0,0 l/m 2 min 0 min 833 W/m 10,5 km/h (2 Bft)
20.05.2015 11:58 13,6 C 13,3 C 68 % 1013,0 hPa 0,0 l/m 2 min 0 min 836 W/m 10,5 km/h (2 Bft)
20.05.2015 12:00 13,8 C 13,3 C 66 % 1013,0 hPa 0,0 l/m 2 min 0 min 833 W/m 18,8 km/h (3 Bft)
20.05.2015 12:02 14,1 C 13,9 C 67 % 1013,0 hPa 0,0 l/m 2 min 0 min 859 W/m 16,7 km/h (3 Bft)
20.05.2015 12:06 14,6 C 13,9 C 63 % 1013,0 hPa 0,0 l/m 2 min 0 min 867 W/m 20,9 km/h (4 Bft)
20.05.2015 12:08 14,8 C 13,9 C 61 % 1013,1 hPa 0,0 l/m 2 min 0 min 866 W/m 23,0 km/h (4 Bft)
20.05.2015 12:10 15,0 C 14,4 C 60 % 1013,1 hPa 0,0 l/m 2 min 0 min 868 W/m 20,9 km/h (4 Bft)
20.05.2015 12:12 15,2 C 14,4 C 60 % 1013,2 hPa 0,0 l/m 2 min 0 min 617 W/m 23,0 km/h (4 Bft)
20.05.2015 12:14 15,3 C 14,4 C 59 % 1013,1 hPa 0,0 l/m 0 min 0 min 265 W/m 16,7 km/h (3 Bft)
20.05.2015 12:16 15,4 C 14,4 C 59 % 1013,1 hPa 0,0 l/m 0 min 0 min 226 W/m 16,7 km/h (3 Bft)
20.05.2015 12:18 15,4 C 13,9 C 60 % 1013,2 hPa 0,0 l/m 0 min 0 min 214 W/m 23,0 km/h (4 Bft)
20.05.2015 12:20 15,4 C 13,9 C 58 % 1013,3 hPa 0,0 l/m 0 min 0 min 272 W/m 16,7 km/h (3 Bft)
20.05.2015 12:22 15,4 C 13,9 C 59 % 1013,2 hPa 0,0 l/m 0 min 0 min 257 W/m 16,7 km/h (3 Bft)
20.05.2015 12:24 15,3 C 13,9 C 57 % 1013,3 hPa 0,0 l/m 0 min 0 min 206 W/m 20,9 km/h (4 Bft)
20.05.2015 12:26 15,2 C 13,9 C 56 % 1013,3 hPa 0,0 l/m 0 min 0 min 272 W/m 25,1 km/h (4 Bft)
20.05.2015 12:28 15,2 C 13,9 C 56 % 1013,3 hPa 0,0 l/m 2 min 0 min 497 W/m 25,1 km/h (4 Bft)
20.05.2015 12:30 15,2 C 14,4 C 58 % 1013,3 hPa 0,0 l/m 2 min 0 min 429 W/m 27,2 km/h (4 Bft)
20.05.2015 12:32 15,3 C 15,0 C 59 % 1013,4 hPa 0,0 l/m 2 min 0 min 498 W/m 20,9 km/h (4 Bft)
20.05.2015 12:34 15,4 C 15,0 C 58 % 1013,3 hPa 0,0 l/m 2 min 0 min 750 W/m 23,0 km/h (4 Bft)
20.05.2015 12:36 15,5 C 15,0 C 56 % 1013,4 hPa 0,0 l/m 0 min 0 min 332 W/m 27,2 km/h (4 Bft)
20.05.2015 12:38 15,5 C 15,6 C 55 % 1013,4 hPa 0,0 l/m 2 min 0 min 701 W/m 25,1 km/h (4 Bft)
20.05.2015 12:40 15,6 C 17,2 C 56 % 1013,4 hPa 0,0 l/m 2 min 0 min 1057 W/m 20,9 km/h (4 Bft)
20.05.2015 12:42 15,7 C 17,8 C 56 % 1013,4 hPa 0,0 l/m 2 min 0 min 1056 W/m 27,2 km/h (4 Bft)
20.05.2015 12:44 15,8 C 16,7 C 54 % 1013,4 hPa 0,0 l/m 2 min 0 min 572 W/m 27,2 km/h (4 Bft)
20.05.2015 12:46 15,7 C 15,6 C 54 % 1013,5 hPa 0,0 l/m 0 min 0 min 240 W/m 20,9 km/h (4 Bft)
20.05.2015 12:48 15,6 C 14,4 C 55 % 1013,5 hPa 0,0 l/m 0 min 0 min 237 W/m 20,9 km/h (4 Bft)
20.05.2015 12:50 15,4 C 13,9 C 55 % 1013,6 hPa 0,0 l/m 0 min 0 min 252 W/m 23,0 km/h (4 Bft)
20.05.2015 12:52 15,2 C 13,9 C 57 % 1013,6 hPa 0,0 l/m 0 min 0 min 240 W/m 16,7 km/h (3 Bft)
20.05.2015 12:54 15,0 C 13,3 C 58 % 1013,6 hPa 0,0 l/m 0 min 0 min 256 W/m 18,8 km/h (3 Bft)
20.05.2015 12:56 14,8 C 13,3 C 58 % 1013,6 hPa 0,0 l/m 0 min 0 min 270 W/m 18,8 km/h (3 Bft)
20.05.2015 12:58 14,7 C 13,9 C 59 % 1013,7 hPa 0,0 l/m 0 min 0 min 383 W/m 18,8 km/h (3 Bft)
20.05.2015 13:00 14,5 C 13,3 C 58 % 1013,7 hPa 0,0 l/m 0 min 0 min 303 W/m 16,7 km/h (3 Bft)
20.05.2015 13:02 14,4 C 13,3 C 58 % 1013,6 hPa 0,0 l/m 0 min 0 min 243 W/m 18,8 km/h (3 Bft)
20.05.2015 13:04 14,3 C 13,9 C 59 % 1013,7 hPa 0,0 l/m 0 min 0 min 287 W/m 20,9 km/h (4 Bft)
20.05.2015 13:06 14,3 C 15,0 C 60 % 1013,6 hPa 0,0 l/m 0 min 0 min 295 W/m 18,8 km/h (3 Bft)
20.05.2015 13:08 14,3 C 15,0 C 61 % 1013,7 hPa 0,0 l/m 0 min 0 min 313 W/m 16,7 km/h (3 Bft)
20.05.2015 13:10 14,3 C 16,7 C 60 % 1013,6 hPa 0,0 l/m 2 min 0 min 691 W/m 14,6 km/h (3 Bft)
20.05.2015 13:12 14,6 C 17,8 C 63 % 1013,6 hPa 0,0 l/m 2 min 0 min 920 W/m 14,6 km/h (3 Bft)
20.05.2015 13:14 14,9 C 19,4 C 64 % 1013,7 hPa 0,0 l/m 2 min 0 min 1041 W/m 16,7 km/h (3 Bft)
20.05.2015 13:16 15,1 C 18,9 C 60 % 1013,7 hPa 0,0 l/m 2 min 0 min 1041 W/m 14,6 km/h (3 Bft)
20.05.2015 13:18 15,2 C 18,9 C 59 % 1013,7 hPa 0,0 l/m 2 min 0 min 973 W/m 14,6 km/h (3 Bft)
20.05.2015 13:20 15,4 C 18,3 C 59 % 1013,6 hPa 0,0 l/m 2 min 0 min 968 W/m 14,6 km/h (3 Bft)
20.05.2015 13:22 15,6 C 17,8 C 58 % 1013,5 hPa 0,0 l/m 2 min 0 min 976 W/m 20,9 km/h (4 Bft)
20.05.2015 13:24 15,8 C 17,8 C 60 % 1013,6 hPa 0,0 l/m 2 min 0 min 972 W/m 12,6 km/h (3 Bft)
20.05.2015 13:26 16,0 C 18,3 C 60 % 1013,6 hPa 0,0 l/m 2 min 0 min 993 W/m 20,9 km/h (4 Bft)
20.05.2015 13:28 16,3 C 18,9 C 59 % 1013,7 hPa 0,0 l/m 2 min 0 min 1002 W/m 27,2 km/h (4 Bft)
20.05.2015 13:30 16,4 C 19,4 C 57 % 1013,6 hPa 0,0 l/m 2 min 0 min 1024 W/m 18,8 km/h (3 Bft)
20.05.2015 13:32 16,6 C 20,6 C 59 % 1013,6 hPa 0,0 l/m 2 min 0 min 1025 W/m 14,6 km/h (3 Bft)
20.05.2015 13:34 16,8 C 20,0 C 58 % 1013,6 hPa 0,0 l/m 2 min 0 min 1014 W/m 18,8 km/h (3 Bft)
20.05.2015 13:36 16,9 C 18,9 C 56 % 1013,6 hPa 0,0 l/m 2 min 0 min 1065 W/m 12,6 km/h (3 Bft)
20.05.2015 13:38 17,1 C 18,9 C 55 % 1013,7 hPa 0,0 l/m 2 min 0 min 1049 W/m 20,9 km/h (4 Bft)
20.05.2015 13:40 17,1 C 18,3 C 53 % 1013,7 hPa 0,0 l/m 2 min 0 min 1011 W/m 25,1 km/h (4 Bft)
20.05.2015 13:42 17,1 C 17,2 C 52 % 1013,8 hPa 0,0 l/m 0 min 0 min 330 W/m 25,1 km/h (4 Bft)
20.05.2015 13:44 17,0 C 16,7 C 52 % 1013,8 hPa 0,0 l/m 0 min 0 min 333 W/m 23,0 km/h (4 Bft)
20.05.2015 13:46 16,9 C 16,7 C 54 % 1013,8 hPa 0,0 l/m 0 min 0 min 325 W/m 12,6 km/h (3 Bft)
20.05.2015 13:48 16,9 C 16,1 C 54 % 1013,8 hPa 0,0 l/m 0 min 0 min 286 W/m 12,6 km/h (3 Bft)
20.05.2015 13:50 16,9 C 15,6 C 53 % 1013,8 hPa 0,0 l/m 0 min 0 min 242 W/m 10,5 km/h (2 Bft)
20.05.2015 13:52 16,8 C 15,6 C 54 % 1013,9 hPa 0,0 l/m 0 min 2 min 231 W/m 14,6 km/h (3 Bft)
20.05.2015 13:54 16,7 C 15,0 C 55 % 1013,9 hPa 0,0 l/m 0 min 0 min 237 W/m 14,6 km/h (3 Bft)
20.05.2015 13:56 16,6 C 15,0 C 54 % 1013,9 hPa 0,0 l/m 0 min 0 min 239 W/m 12,6 km/h (3 Bft)
20.05.2015 13:58 16,4 C 15,0 C 55 % 1013,8 hPa 0,0 l/m 0 min 0 min 265 W/m 18,8 km/h (3 Bft)
20.05.2015 14:00 16,4 C 15,0 C 55 % 1013,9 hPa 0,0 l/m 2 min 0 min 1053 W/m 18,8 km/h (3 Bft)
20.05.2015 14:02 16,4 C 16,1 C 57 % 1014,0 hPa 0,0 l/m 2 min 0 min 1055 W/m 27,2 km/h (4 Bft)
20.05.2015 14:04 16,5 C 16,7 C 59 % 1013,9 hPa 0,0 l/m 2 min 0 min 1052 W/m 20,9 km/h (4 Bft)
20.05.2015 14:06 16,6 C 16,7 C 58 % 1014,0 hPa 0,0 l/m 2 min 0 min 918 W/m 31,4 km/h (5 Bft)
20.05.2015 14:08 16,5 C 16,1 C 59 % 1014,1 hPa 0,0 l/m 0 min 0 min 287 W/m 31,4 km/h (5 Bft)
20.05.2015 14:10 16,3 C 15,6 C 58 % 1014,2 hPa 0,0 l/m 0 min 0 min 299 W/m 27,2 km/h (4 Bft)
20.05.2015 14:12 16,2 C 15,0 C 58 % 1014,2 hPa 0,0 l/m 0 min 0 min 281 W/m 31,4 km/h (5 Bft)
20.05.2015 14:14 16,1 C 15,0 C 59 % 1014,2 hPa 0,0 l/m 0 min 0 min 285 W/m 25,1 km/h (4 Bft)
20.05.2015 14:16 15,9 C 15,0 C 59 % 1014,3 hPa 0,0 l/m 0 min 0 min 301 W/m 23,0 km/h (4 Bft)
20.05.2015 14:18 15,9 C 15,0 C 61 % 1014,3 hPa 0,0 l/m 0 min 0 min 289 W/m 20,9 km/h (4 Bft)
20.05.2015 14:20 15,8 C 15,0 C 61 % 1014,3 hPa 0,0 l/m 0 min 0 min 232 W/m 18,8 km/h (3 Bft)
20.05.2015 14:22 15,7 C 15,0 C 60 % 1014,3 hPa 0,0 l/m 0 min 0 min 223 W/m 25,1 km/h (4 Bft)
20.05.2015 14:24 15,6 C 14,4 C 60 % 1014,4 hPa 0,0 l/m 0 min 0 min 230 W/m 18,8 km/h (3 Bft)
20.05.2015 14:26 15,5 C 14,4 C 60 % 1014,4 hPa 0,0 l/m 0 min 2 min 242 W/m 27,2 km/h (4 Bft)
20.05.2015 14:28 15,3 C 14,4 C 61 % 1014,4 hPa 0,0 l/m 0 min 2 min 247 W/m 29,3 km/h (5 Bft)
20.05.2015 14:30 15,1 C 13,9 C 62 % 1014,4 hPa 0,0 l/m 0 min 2 min 242 W/m 23,0 km/h (4 Bft)
20.05.2015 14:32 15,0 C 13,3 C 63 % 1014,4 hPa 0,0 l/m 0 min 2 min 252 W/m 20,9 km/h (4 Bft)
20.05.2015 14:34 14,8 C 13,3 C 63 % 1014,4 hPa 0,0 l/m 0 min 2 min 320 W/m 27,2 km/h (4 Bft)
20.05.2015 14:36 14,7 C 13,9 C 64 % 1014,4 hPa 0,0 l/m 0 min 2 min 366 W/m 18,8 km/h (3 Bft)
20.05.2015 14:38 14,7 C 13,9 C 65 % 1014,4 hPa 0,0 l/m 0 min 0 min 372 W/m 14,6 km/h (3 Bft)
20.05.2015 14:40 14,6 C 14,4 C 65 % 1014,4 hPa 0,0 l/m 0 min 0 min 363 W/m 27,2 km/h (4 Bft)
20.05.2015 14:42 14,6 C 14,4 C 62 % 1014,5 hPa 0,0 l/m 0 min 0 min 371 W/m 29,3 km/h (5 Bft)
20.05.2015 14:44 14,7 C 15,0 C 60 % 1014,4 hPa 0,0 l/m 2 min 0 min 883 W/m 29,3 km/h (5 Bft)
20.05.2015 14:46 14,8 C 15,6 C 59 % 1014,4 hPa 0,0 l/m 2 min 0 min 978 W/m 25,1 km/h (4 Bft)
20.05.2015 14:48 14,9 C 15,6 C 59 % 1014,5 hPa 0,0 l/m 2 min 0 min 983 W/m 33,5 km/h (5 Bft)
20.05.2015 14:50 15,0 C 15,0 C 56 % 1014,4 hPa 0,0 l/m 2 min 0 min 409 W/m 25,1 km/h (4 Bft)
20.05.2015 14:52 15,1 C 15,0 C 56 % 1014,4 hPa 0,0 l/m 0 min 0 min 306 W/m 25,1 km/h (4 Bft)
20.05.2015 14:54 15,1 C 15,0 C 55 % 1014,4 hPa 0,0 l/m 0 min 0 min 301 W/m 23,0 km/h (4 Bft)
20.05.2015 14:56 15,1 C 14,4 C 54 % 1014,4 hPa 0,0 l/m 0 min 0 min 308 W/m 23,0 km/h (4 Bft)
20.05.2015 14:58 15,1 C 15,0 C 55 % 1014,4 hPa 0,0 l/m 0 min 0 min 371 W/m 18,8 km/h (3 Bft)
20.05.2015 15:00 15,1 C 15,0 C 56 % 1014,3 hPa 0,0 l/m 0 min 0 min 360 W/m 23,0 km/h (4 Bft)
20.05.2015 15:02 15,1 C 15,0 C 56 % 1014,3 hPa 0,0 l/m 0 min 0 min 328 W/m 27,2 km/h (4 Bft)
20.05.2015 15:04 15,1 C 15,0 C 56 % 1014,4 hPa 0,0 l/m 0 min 0 min 312 W/m 29,3 km/h (5 Bft)
20.05.2015 15:06 15,0 C 15,0 C 54 % 1014,4 hPa 0,0 l/m 0 min 0 min 314 W/m 31,4 km/h (5 Bft)
20.05.2015 15:08 15,0 C 15,0 C 54 % 1014,5 hPa 0,0 l/m 0 min 0 min 331 W/m 20,9 km/h (4 Bft)
20.05.2015 15:10 15,0 C 15,0 C 56 % 1014,4 hPa 0,0 l/m 0 min 0 min 368 W/m 20,9 km/h (4 Bft)
20.05.2015 15:12 15,0 C 15,0 C 54 % 1014,5 hPa 0,0 l/m 2 min 0 min 388 W/m 25,1 km/h (4 Bft)
20.05.2015 15:14 15,0 C 15,0 C 55 % 1014,5 hPa 0,0 l/m 2 min 0 min 410 W/m 23,0 km/h (4 Bft)
20.05.2015 15:16 15,1 C 15,6 C 56 % 1014,5 hPa 0,0 l/m 2 min 0 min 388 W/m 20,9 km/h (4 Bft)
20.05.2015 15:18 15,1 C 15,0 C 55 % 1014,5 hPa 0,0 l/m 0 min 0 min 367 W/m 25,1 km/h (4 Bft)
20.05.2015 15:20 15,0 C 15,0 C 55 % 1014,5 hPa 0,0 l/m 0 min 0 min 325 W/m 29,3 km/h (5 Bft)
20.05.2015 15:22 15,0 C 15,0 C 56 % 1014,5 hPa 0,0 l/m 0 min 0 min 306 W/m 20,9 km/h (4 Bft)
20.05.2015 15:24 14,9 C 14,4 C 56 % 1014,5 hPa 0,0 l/m 0 min 0 min 305 W/m 27,2 km/h (4 Bft)
20.05.2015 15:26 14,9 C 14,4 C 55 % 1014,6 hPa 0,0 l/m 0 min 0 min 300 W/m 23,0 km/h (4 Bft)
20.05.2015 15:28 14,9 C 14,4 C 57 % 1014,6 hPa 0,0 l/m 0 min 0 min 376 W/m 23,0 km/h (4 Bft)
20.05.2015 15:30 15,0 C 14,4 C 55 % 1014,6 hPa 0,0 l/m 2 min 0 min 703 W/m 29,3 km/h (5 Bft)
20.05.2015 15:32 15,0 C 15,0 C 55 % 1014,6 hPa 0,0 l/m 2 min 0 min 622 W/m 27,2 km/h (4 Bft)
20.05.2015 15:34 15,1 C 15,0 C 56 % 1014,6 hPa 0,0 l/m 2 min 0 min 615 W/m 23,0 km/h (4 Bft)
20.05.2015 15:36 15,2 C 15,6 C 55 % 1014,6 hPa 0,0 l/m 2 min 0 min 871 W/m 18,8 km/h (3 Bft)
20.05.2015 15:38 15,3 C 15,6 C 52 % 1014,6 hPa 0,0 l/m 2 min 0 min 947 W/m 25,1 km/h (4 Bft)
20.05.2015 15:40 15,3 C 16,1 C 53 % 1014,6 hPa 0,0 l/m 2 min 0 min 929 W/m 23,0 km/h (4 Bft)
20.05.2015 15:42 15,4 C 16,1 C 52 % 1014,7 hPa 0,0 l/m 2 min 0 min 959 W/m 25,1 km/h (4 Bft)
20.05.2015 15:44 15,5 C 16,7 C 52 % 1014,7 hPa 0,0 l/m 2 min 0 min 977 W/m 25,1 km/h (4 Bft)
20.05.2015 15:46 15,6 C 16,7 C 52 % 1014,8 hPa 0,0 l/m 2 min 0 min 1005 W/m 20,9 km/h (4 Bft)
20.05.2015 15:48 15,6 C 16,1 C 52 % 1014,7 hPa 0,0 l/m 2 min 0 min 498 W/m 25,1 km/h (4 Bft)
20.05.2015 15:50 15,6 C 16,1 C 52 % 1014,8 hPa 0,0 l/m 2 min 0 min 454 W/m 23,0 km/h (4 Bft)
20.05.2015 15:52 15,6 C 16,1 C 52 % 1014,8 hPa 0,0 l/m 2 min 0 min 498 W/m 27,2 km/h (4 Bft)
20.05.2015 15:54 15,7 C 16,1 C 53 % 1014,9 hPa 0,0 l/m 2 min 0 min 529 W/m 20,9 km/h (4 Bft)
20.05.2015 15:56 15,8 C 16,7 C 53 % 1014,9 hPa 0,0 l/m 2 min 0 min 641 W/m 16,7 km/h (3 Bft)
20.05.2015 15:58 15,8 C 16,7 C 53 % 1014,9 hPa 0,0 l/m 2 min 0 min 867 W/m 20,9 km/h (4 Bft)
20.05.2015 16:00 15,9 C 16,7 C 52 % 1015,0 hPa 0,0 l/m 2 min 0 min 731 W/m 20,9 km/h (4 Bft)
20.05.2015 16:02 16,0 C 16,7 C 53 % 1015,0 hPa 0,0 l/m 2 min 0 min 564 W/m 25,1 km/h (4 Bft)
20.05.2015 16:04 16,1 C 16,7 C 53 % 1015,1 hPa 0,0 l/m 2 min 0 min 526 W/m 29,3 km/h (5 Bft)
20.05.2015 16:06 16,1 C 16,1 C 54 % 1015,0 hPa 0,0 l/m 2 min 0 min 434 W/m 20,9 km/h (4 Bft)
20.05.2015 16:08 16,1 C 16,1 C 55 % 1015,1 hPa 0,0 l/m 2 min 0 min 434 W/m 20,9 km/h (4 Bft)
20.05.2015 16:10 16,1 C 16,1 C 56 % 1015,2 hPa 0,0 l/m 2 min 0 min 494 W/m 16,7 km/h (3 Bft)
20.05.2015 16:12 16,1 C 16,7 C 56 % 1015,1 hPa 0,0 l/m 2 min 0 min 708 W/m 29,3 km/h (5 Bft)
20.05.2015 16:14 16,2 C 16,7 C 55 % 1015,2 hPa 0,0 l/m 2 min 0 min 745 W/m 23,0 km/h (4 Bft)
20.05.2015 16:16 16,2 C 16,7 C 57 % 1015,2 hPa 0,0 l/m 2 min 0 min 748 W/m 20,9 km/h (4 Bft)
20.05.2015 16:18 16,3 C 16,7 C 56 % 1015,2 hPa 0,0 l/m 2 min 0 min 783 W/m 29,3 km/h (5 Bft)
20.05.2015 16:20 16,4 C 17,2 C 56 % 1015,2 hPa 0,0 l/m 2 min 0 min 810 W/m 23,0 km/h (4 Bft)
20.05.2015 16:22 16,6 C 17,2 C 58 % 1015,1 hPa 0,0 l/m 2 min 0 min 806 W/m 20,9 km/h (4 Bft)
20.05.2015 16:24 16,7 C 17,2 C 55 % 1015,1 hPa 0,0 l/m 2 min 0 min 671 W/m 25,1 km/h (4 Bft)
20.05.2015 16:26 16,8 C 16,7 C 54 % 1015,1 hPa 0,0 l/m 2 min 0 min 385 W/m 16,7 km/h (3 Bft)
20.05.2015 16:28 16,7 C 16,7 C 53 % 1015,2 hPa 0,0 l/m 0 min 0 min 256 W/m 20,9 km/h (4 Bft)
20.05.2015 16:30 16,6 C 16,1 C 52 % 1015,3 hPa 0,0 l/m 0 min 0 min 236 W/m 18,8 km/h (3 Bft)
20.05.2015 16:32 16,4 C 15,6 C 52 % 1015,3 hPa 0,0 l/m 0 min 0 min 233 W/m 18,8 km/h (3 Bft)
20.05.2015 16:34 16,3 C 15,0 C 53 % 1015,3 hPa 0,0 l/m 0 min 0 min 231 W/m 16,7 km/h (3 Bft)
20.05.2015 16:36 16,1 C 15,0 C 53 % 1015,3 hPa 0,0 l/m 0 min 0 min 249 W/m 16,7 km/h (3 Bft)
20.05.2015 16:38 15,9 C 15,0 C 54 % 1015,3 hPa 0,0 l/m 0 min 0 min 309 W/m 18,8 km/h (3 Bft)
20.05.2015 16:40 15,8 C 15,0 C 55 % 1015,2 hPa 0,0 l/m 0 min 0 min 302 W/m 12,6 km/h (3 Bft)
20.05.2015 16:42 15,7 C 15,0 C 56 % 1015,3 hPa 0,0 l/m 0 min 0 min 291 W/m 20,9 km/h (4 Bft)
20.05.2015 16:44 15,6 C 15,0 C 56 % 1015,3 hPa 0,0 l/m 0 min 0 min 275 W/m 20,9 km/h (4 Bft)
20.05.2015 16:46 15,4 C 14,4 C 56 % 1015,3 hPa 0,0 l/m 0 min 0 min 265 W/m 12,6 km/h (3 Bft)
20.05.2015 16:48 15,3 C 14,4 C 57 % 1015,3 hPa 0,0 l/m 0 min 0 min 260 W/m 14,6 km/h (3 Bft)
20.05.2015 16:50 15,3 C 14,4 C 56 % 1015,4 hPa 0,0 l/m 0 min 0 min 249 W/m 16,7 km/h (3 Bft)
20.05.2015 16:52 15,2 C 14,4 C 55 % 1015,3 hPa 0,0 l/m 0 min 0 min 238 W/m 14,6 km/h (3 Bft)
20.05.2015 16:54 15,1 C 14,4 C 55 % 1015,3 hPa 0,0 l/m 0 min 0 min 246 W/m 10,5 km/h (2 Bft)
20.05.2015 16:56 15,0 C 13,9 C 56 % 1015,2 hPa 0,0 l/m 0 min 0 min 266 W/m 8,4 km/h (2 Bft)
20.05.2015 16:58 14,9 C 13,9 C 56 % 1015,2 hPa 0,0 l/m 0 min 0 min 287 W/m 16,7 km/h (3 Bft)
20.05.2015 17:00 14,9 C 13,9 C 56 % 1015,3 hPa 0,0 l/m 2 min 0 min 319 W/m 16,7 km/h (3 Bft)
20.05.2015 17:02 14,8 C 13,9 C 56 % 1015,3 hPa 0,0 l/m 2 min 0 min 308 W/m 14,6 km/h (3 Bft)
20.05.2015 17:04 14,8 C 13,9 C 56 % 1015,3 hPa 0,0 l/m 2 min 0 min 316 W/m 18,8 km/h (3 Bft)
20.05.2015 17:06 14,7 C 13,9 C 56 % 1015,3 hPa 0,0 l/m 2 min 0 min 329 W/m 14,6 km/h (3 Bft)
20.05.2015 17:08 14,7 C 13,9 C 57 % 1015,4 hPa 0,0 l/m 2 min 0 min 332 W/m 14,6 km/h (3 Bft)
20.05.2015 17:10 14,7 C 13,9 C 59 % 1015,4 hPa 0,0 l/m 2 min 0 min 348 W/m 12,6 km/h (3 Bft)
20.05.2015 17:12 14,7 C 14,4 C 59 % 1015,4 hPa 0,0 l/m 2 min 0 min 355 W/m 8,4 km/h (2 Bft)
20.05.2015 17:14 14,7 C 14,4 C 59 % 1015,4 hPa 0,0 l/m 2 min 0 min 300 W/m 12,6 km/h (3 Bft)
20.05.2015 17:16 14,7 C 13,9 C 59 % 1015,5 hPa 0,0 l/m 0 min 0 min 264 W/m 16,7 km/h (3 Bft)
20.05.2015 17:18 14,7 C 13,9 C 59 % 1015,5 hPa 0,0 l/m 0 min 0 min 238 W/m 10,5 km/h (2 Bft)
20.05.2015 17:20 14,7 C 13,9 C 59 % 1015,5 hPa 0,0 l/m 0 min 0 min 274 W/m 10,5 km/h (2 Bft)
20.05.2015 17:22 14,7 C 13,9 C 59 % 1015,5 hPa 0,0 l/m 2 min 0 min 317 W/m 8,4 km/h (2 Bft)
20.05.2015 17:24 14,7 C 13,9 C 60 % 1015,5 hPa 0,0 l/m 2 min 0 min 417 W/m 10,5 km/h (2 Bft)
20.05.2015 17:26 14,7 C 13,9 C 60 % 1015,7 hPa 0,0 l/m 2 min 0 min 452 W/m 10,5 km/h (2 Bft)
20.05.2015 17:28 14,7 C 14,4 C 61 % 1015,6 hPa 0,0 l/m 2 min 0 min 478 W/m 10,5 km/h (2 Bft)
20.05.2015 17:30 14,8 C 14,4 C 61 % 1015,6 hPa 0,0 l/m 2 min 0 min 459 W/m 16,7 km/h (3 Bft)
20.05.2015 17:32 14,8 C 14,4 C 60 % 1015,7 hPa 0,0 l/m 2 min 0 min 358 W/m 18,8 km/h (3 Bft)
20.05.2015 17:34 14,9 C 14,4 C 60 % 1015,7 hPa 0,0 l/m 2 min 0 min 283 W/m 23,0 km/h (4 Bft)
20.05.2015 17:36 14,8 C 14,4 C 60 % 1015,8 hPa 0,0 l/m 0 min 0 min 221 W/m 16,7 km/h (3 Bft)
20.05.2015 17:38 14,8 C 13,9 C 59 % 1015,8 hPa 0,0 l/m 0 min 0 min 227 W/m 14,6 km/h (3 Bft)
20.05.2015 17:40 14,8 C 13,9 C 59 % 1015,8 hPa 0,0 l/m 0 min 0 min 232 W/m 12,6 km/h (3 Bft)
20.05.2015 17:42 14,8 C 13,9 C 60 % 1015,8 hPa 0,0 l/m 2 min 0 min 261 W/m 10,5 km/h (2 Bft)
20.05.2015 17:44 14,8 C 14,4 C 60 % 1015,7 hPa 0,0 l/m 2 min 0 min 271 W/m 8,4 km/h (2 Bft)
20.05.2015 17:46 14,8 C 14,4 C 60 % 1015,7 hPa 0,0 l/m 0 min 0 min 247 W/m 12,6 km/h (3 Bft)
20.05.2015 17:48 14,8 C 14,4 C 60 % 1015,7 hPa 0,0 l/m 2 min 0 min 261 W/m 10,5 km/h (2 Bft)
20.05.2015 17:50 14,8 C 14,4 C 60 % 1015,7 hPa 0,0 l/m 2 min 0 min 253 W/m 12,6 km/h (3 Bft)
20.05.2015 17:52 14,8 C 14,4 C 59 % 1015,7 hPa 0,0 l/m 0 min 0 min 239 W/m 16,7 km/h (3 Bft)
20.05.2015 17:54 14,8 C 14,4 C 58 % 1015,7 hPa 0,0 l/m 2 min 0 min 311 W/m 14,6 km/h (3 Bft)
20.05.2015 17:56 14,8 C 14,4 C 59 % 1015,8 hPa 0,0 l/m 2 min 0 min 609 W/m 18,8 km/h (3 Bft)
20.05.2015 17:58 14,9 C 14,4 C 59 % 1015,7 hPa 0,0 l/m 2 min 0 min 607 W/m 12,6 km/h (3 Bft)
20.05.2015 18:00 14,9 C 14,4 C 59 % 1015,7 hPa 0,0 l/m 0 min 0 min 238 W/m 16,7 km/h (3 Bft)
20.05.2015 18:02 15,0 C 14,4 C 59 % 1015,9 hPa 0,0 l/m 2 min 0 min 240 W/m 10,5 km/h (2 Bft)
20.05.2015 18:06 15,0 C 14,4 C 58 % 1015,8 hPa 0,0 l/m 2 min 0 min 320 W/m 14,6 km/h (3 Bft)
20.05.2015 18:08 15,0 C 14,4 C 58 % 1015,8 hPa 0,0 l/m 2 min 0 min 458 W/m 23,0 km/h (4 Bft)
20.05.2015 18:10 15,1 C 14,4 C 58 % 1015,8 hPa 0,0 l/m 2 min 0 min 485 W/m 14,6 km/h (3 Bft)
20.05.2015 18:12 15,1 C 14,4 C 58 % 1015,8 hPa 0,0 l/m 2 min 0 min 510 W/m 16,7 km/h (3 Bft)
20.05.2015 18:14 15,1 C 14,4 C 58 % 1015,8 hPa 0,0 l/m 2 min 0 min 494 W/m 16,7 km/h (3 Bft)
20.05.2015 18:16 15,2 C 14,4 C 59 % 1015,7 hPa 0,0 l/m 2 min 0 min 459 W/m 25,1 km/h (4 Bft)
20.05.2015 18:18 15,2 C 14,4 C 60 % 1015,9 hPa 0,0 l/m 2 min 0 min 455 W/m 23,0 km/h (4 Bft)
20.05.2015 18:20 15,2 C 13,9 C 60 % 1015,9 hPa 0,0 l/m 2 min 0 min 461 W/m 25,1 km/h (4 Bft)
20.05.2015 18:22 15,2 C 13,9 C 59 % 1016,0 hPa 0,0 l/m 2 min 0 min 472 W/m 16,7 km/h (3 Bft)
20.05.2015 18:24 15,2 C 13,9 C 58 % 1016,0 hPa 0,0 l/m 2 min 0 min 456 W/m 14,6 km/h (3 Bft)
20.05.2015 18:26 15,2 C 13,9 C 58 % 1016,1 hPa 0,0 l/m 2 min 0 min 448 W/m 16,7 km/h (3 Bft)
20.05.2015 18:28 15,2 C 13,9 C 58 % 1015,9 hPa 0,0 l/m 2 min 0 min 447 W/m 12,6 km/h (3 Bft)
20.05.2015 18:30 15,1 C 13,9 C 58 % 1015,9 hPa 0,0 l/m 2 min 0 min 450 W/m 14,6 km/h (3 Bft)
20.05.2015 18:32 15,1 C 13,9 C 59 % 1016,0 hPa 0,0 l/m 2 min 0 min 431 W/m 20,9 km/h (4 Bft)
20.05.2015 18:34 15,1 C 13,9 C 58 % 1016,1 hPa 0,0 l/m 2 min 0 min 287 W/m 18,8 km/h (3 Bft)
20.05.2015 18:36 15,1 C 13,9 C 57 % 1016,1 hPa 0,0 l/m 0 min 0 min 185 W/m 12,6 km/h (3 Bft)
20.05.2015 18:38 15,1 C 13,9 C 57 % 1016,1 hPa 0,0 l/m 0 min 0 min 189 W/m 14,6 km/h (3 Bft)
20.05.2015 18:40 15,0 C 13,9 C 57 % 1016,1 hPa 0,0 l/m 0 min 0 min 185 W/m 16,7 km/h (3 Bft)
20.05.2015 18:42 15,0 C 13,9 C 57 % 1016,1 hPa 0,0 l/m 0 min 0 min 171 W/m 18,8 km/h (3 Bft)
20.05.2015 18:44 14,9 C 13,3 C 56 % 1016,1 hPa 0,0 l/m 0 min 0 min 154 W/m 14,6 km/h (3 Bft)
20.05.2015 18:46 14,9 C 13,3 C 56 % 1016,2 hPa 0,0 l/m 0 min 0 min 146 W/m 10,5 km/h (2 Bft)
20.05.2015 18:48 14,9 C 13,3 C 56 % 1016,2 hPa 0,0 l/m 0 min 0 min 139 W/m 8,4 km/h (2 Bft)
20.05.2015 18:50 14,9 C 13,3 C 57 % 1016,2 hPa 0,0 l/m 0 min 0 min 135 W/m 8,4 km/h (2 Bft)
20.05.2015 18:52 14,8 C 13,3 C 57 % 1016,2 hPa 0,0 l/m 0 min 0 min 146 W/m 10,5 km/h (2 Bft)
20.05.2015 18:54 14,8 C 13,3 C 56 % 1016,2 hPa 0,0 l/m 0 min 0 min 154 W/m 10,5 km/h (2 Bft)
20.05.2015 18:56 14,8 C 13,3 C 56 % 1016,3 hPa 0,0 l/m 0 min 0 min 148 W/m 6,3 km/h (2 Bft)
20.05.2015 18:58 14,7 C 13,3 C 56 % 1016,2 hPa 0,0 l/m 0 min 0 min 138 W/m 4,2 km/h (1 Bft)
20.05.2015 19:00 14,7 C 13,3 C 56 % 1016,2 hPa 0,0 l/m 0 min 0 min 127 W/m 4,2 km/h (1 Bft)
20.05.2015 19:02 14,7 C 13,3 C 56 % 1016,2 hPa 0,0 l/m 0 min 0 min 112 W/m 4,2 km/h (1 Bft)
20.05.2015 19:04 14,7 C 13,3 C 56 % 1016,2 hPa 0,0 l/m 0 min 0 min 92 W/m 8,4 km/h (2 Bft)
20.05.2015 19:06 14,7 C 12,8 C 56 % 1016,3 hPa 0,0 l/m 0 min 0 min 71 W/m 8,4 km/h (2 Bft)
20.05.2015 19:08 14,6 C 12,8 C 56 % 1016,3 hPa 0,0 l/m 0 min 0 min 62 W/m 8,4 km/h (2 Bft)
20.05.2015 19:10 14,6 C 12,8 C 56 % 1016,3 hPa 0,0 l/m 0 min 0 min 60 W/m 8,4 km/h (2 Bft)
20.05.2015 19:12 14,6 C 12,8 C 56 % 1016,3 hPa 0,0 l/m 0 min 0 min 63 W/m 8,4 km/h (2 Bft)
20.05.2015 19:14 14,6 C 12,8 C 56 % 1016,3 hPa 0,0 l/m 0 min 0 min 65 W/m 4,2 km/h (1 Bft)
20.05.2015 19:16 14,5 C 12,8 C 57 % 1016,3 hPa 0,0 l/m 0 min 0 min 71 W/m 8,4 km/h (2 Bft)
20.05.2015 19:18 14,4 C 12,8 C 57 % 1016,3 hPa 0,0 l/m 0 min 0 min 83 W/m 8,4 km/h (2 Bft)
20.05.2015 19:20 14,4 C 12,8 C 57 % 1016,3 hPa 0,0 l/m 0 min 0 min 90 W/m 6,3 km/h (2 Bft)
20.05.2015 19:22 14,4 C 12,8 C 57 % 1016,3 hPa 0,0 l/m 0 min 0 min 85 W/m 12,6 km/h (3 Bft)
20.05.2015 19:24 14,4 C 12,8 C 58 % 1016,4 hPa 0,0 l/m 0 min 0 min 74 W/m 8,4 km/h (2 Bft)
20.05.2015 19:26 14,3 C 12,8 C 58 % 1016,4 hPa 0,0 l/m 0 min 0 min 60 W/m 8,4 km/h (2 Bft)
20.05.2015 19:28 14,3 C 12,8 C 58 % 1016,4 hPa 0,0 l/m 0 min 0 min 48 W/m 12,6 km/h (3 Bft)
20.05.2015 19:30 14,3 C 12,8 C 58 % 1016,4 hPa 0,0 l/m 0 min 0 min 42 W/m 16,7 km/h (3 Bft)
20.05.2015 19:32 14,2 C 12,8 C 58 % 1016,4 hPa 0,0 l/m 0 min 0 min 39 W/m 14,6 km/h (3 Bft)
20.05.2015 19:34 14,2 C 12,8 C 59 % 1016,5 hPa 0,0 l/m 0 min 0 min 40 W/m 20,9 km/h (4 Bft)
20.05.2015 19:36 14,2 C 12,8 C 58 % 1016,5 hPa 0,0 l/m 0 min 0 min 44 W/m 18,8 km/h (3 Bft)
20.05.2015 19:38 14,2 C 12,8 C 59 % 1016,5 hPa 0,0 l/m 0 min 0 min 53 W/m 10,5 km/h (2 Bft)
20.05.2015 19:40 14,2 C 12,8 C 59 % 1016,5 hPa 0,0 l/m 0 min 0 min 66 W/m 12,6 km/h (3 Bft)
20.05.2015 19:42 14,2 C 12,8 C 59 % 1016,6 hPa 0,0 l/m 0 min 0 min 100 W/m 16,7 km/h (3 Bft)
20.05.2015 19:44 14,2 C 12,8 C 58 % 1016,6 hPa 0,0 l/m 2 min 0 min 184 W/m 18,8 km/h (3 Bft)
20.05.2015 19:46 14,2 C 12,8 C 58 % 1016,6 hPa 0,0 l/m 2 min 0 min 211 W/m 12,6 km/h (3 Bft)
20.05.2015 19:48 14,2 C 12,8 C 57 % 1016,6 hPa 0,0 l/m 2 min 0 min 213 W/m 20,9 km/h (4 Bft)
20.05.2015 19:50 14,2 C 12,8 C 57 % 1016,6 hPa 0,0 l/m 2 min 0 min 212 W/m 18,8 km/h (3 Bft)
20.05.2015 19:52 14,2 C 13,3 C 57 % 1016,7 hPa 0,0 l/m 2 min 0 min 212 W/m 23,0 km/h (4 Bft)
20.05.2015 19:54 14,2 C 13,3 C 58 % 1016,7 hPa 0,0 l/m 2 min 0 min 206 W/m 12,6 km/h (3 Bft)
20.05.2015 19:56 14,2 C 13,3 C 58 % 1016,7 hPa 0,0 l/m 2 min 0 min 193 W/m 23,0 km/h (4 Bft)
20.05.2015 19:58 14,2 C 13,3 C 57 % 1016,7 hPa 0,0 l/m 2 min 0 min 181 W/m 25,1 km/h (4 Bft)
20.05.2015 20:00 14,2 C 12,8 C 57 % 1016,7 hPa 0,0 l/m 2 min 0 min 167 W/m 16,7 km/h (3 Bft)
20.05.2015 20:02 14,2 C 12,8 C 57 % 1016,8 hPa 0,0 l/m 2 min 0 min 155 W/m 14,6 km/h (3 Bft)
20.05.2015 20:04 14,2 C 12,8 C 57 % 1016,8 hPa 0,0 l/m 2 min 0 min 140 W/m 18,8 km/h (3 Bft)
20.05.2015 20:06 14,2 C 12,8 C 57 % 1016,9 hPa 0,0 l/m 2 min 0 min 125 W/m 23,0 km/h (4 Bft)
20.05.2015 20:08 14,2 C 12,8 C 57 % 1016,9 hPa 0,0 l/m 2 min 0 min 119 W/m 20,9 km/h (4 Bft)
20.05.2015 20:10 14,2 C 12,8 C 57 % 1017,0 hPa 0,0 l/m 2 min 0 min 103 W/m 14,6 km/h (3 Bft)
20.05.2015 20:12 14,2 C 12,2 C 58 % 1017,1 hPa 0,0 l/m 2 min 0 min 86 W/m 20,9 km/h (4 Bft)
20.05.2015 20:14 14,2 C 12,2 C 58 % 1017,1 hPa 0,0 l/m 2 min 0 min 95 W/m 18,8 km/h (3 Bft)
20.05.2015 20:16 14,2 C 12,2 C 58 % 1017,2 hPa 0,0 l/m 2 min 0 min 91 W/m 20,9 km/h (4 Bft)
20.05.2015 20:18 14,2 C 12,2 C 58 % 1017,2 hPa 0,0 l/m 2 min 0 min 90 W/m 16,7 km/h (3 Bft)
20.05.2015 20:20 14,2 C 12,2 C 59 % 1017,2 hPa 0,0 l/m 2 min 0 min 91 W/m 12,6 km/h (3 Bft)
20.05.2015 20:22 14,2 C 12,2 C 59 % 1017,2 hPa 0,0 l/m 2 min 0 min 92 W/m 14,6 km/h (3 Bft)
20.05.2015 20:24 14,1 C 12,2 C 59 % 1017,2 hPa 0,0 l/m 2 min 0 min 93 W/m 16,7 km/h (3 Bft)
20.05.2015 20:26 14,1 C 12,2 C 60 % 1017,2 hPa 0,0 l/m 2 min 0 min 91 W/m 16,7 km/h (3 Bft)
20.05.2015 20:28 14,0 C 12,2 C 59 % 1017,3 hPa 0,0 l/m 2 min 0 min 86 W/m 23,0 km/h (4 Bft)
20.05.2015 20:30 13,9 C 12,2 C 59 % 1017,3 hPa 0,0 l/m 2 min 0 min 82 W/m 12,6 km/h (3 Bft)
20.05.2015 20:32 13,9 C 12,2 C 59 % 1017,4 hPa 0,0 l/m 2 min 0 min 70 W/m 16,7 km/h (3 Bft)
20.05.2015 20:34 13,9 C 12,2 C 59 % 1017,4 hPa 0,0 l/m 2 min 0 min 58 W/m 23,0 km/h (4 Bft)
20.05.2015 20:36 13,8 C 11,7 C 59 % 1017,4 hPa 0,0 l/m 2 min 0 min 50 W/m 23,0 km/h (4 Bft)
20.05.2015 20:38 13,8 C 11,7 C 59 % 1017,5 hPa 0,0 l/m 0 min 0 min 44 W/m 18,8 km/h (3 Bft)
20.05.2015 20:40 13,7 C 11,7 C 59 % 1017,6 hPa 0,0 l/m 0 min 0 min 40 W/m 14,6 km/h (3 Bft)
20.05.2015 20:42 13,7 C 11,7 C 59 % 1017,6 hPa 0,0 l/m 0 min 0 min 36 W/m 14,6 km/h (3 Bft)
20.05.2015 20:44 13,6 C 11,7 C 59 % 1017,6 hPa 0,0 l/m 0 min 0 min 33 W/m 18,8 km/h (3 Bft)
20.05.2015 20:46 13,6 C 11,7 C 60 % 1017,7 hPa 0,0 l/m 0 min 0 min 31 W/m 14,6 km/h (3 Bft)
20.05.2015 20:48 13,5 C 11,1 C 60 % 1017,7 hPa 0,0 l/m 0 min 0 min 29 W/m 10,5 km/h (2 Bft)
20.05.2015 20:50 13,4 C 11,1 C 60 % 1017,7 hPa 0,0 l/m 0 min 0 min 26 W/m 10,5 km/h (2 Bft)
20.05.2015 20:52 13,4 C 11,1 C 60 % 1017,8 hPa 0,0 l/m 0 min 0 min 25 W/m 10,5 km/h (2 Bft)
20.05.2015 20:54 13,3 C 11,1 C 60 % 1017,8 hPa 0,0 l/m 0 min 0 min 23 W/m 8,4 km/h (2 Bft)
20.05.2015 20:56 13,3 C 11,1 C 61 % 1017,8 hPa 0,0 l/m 0 min 0 min 22 W/m 8,4 km/h (2 Bft)
20.05.2015 20:58 13,2 C 11,1 C 61 % 1017,8 hPa 0,0 l/m 0 min 0 min 21 W/m 10,5 km/h (2 Bft)
20.05.2015 21:00 13,2 C 11,1 C 61 % 1017,9 hPa 0,0 l/m 0 min 0 min 19 W/m 8,4 km/h (2 Bft)
20.05.2015 21:02 13,1 C 11,1 C 61 % 1017,9 hPa 0,0 l/m 2 min 0 min 19 W/m 14,6 km/h (3 Bft)
20.05.2015 21:04 13,1 C 10,6 C 61 % 1017,9 hPa 0,0 l/m 0 min 0 min 18 W/m 14,6 km/h (3 Bft)
20.05.2015 21:06 13,0 C 10,6 C 61 % 1017,9 hPa 0,0 l/m 0 min 0 min 17 W/m 8,4 km/h (2 Bft)
20.05.2015 21:08 12,9 C 10,6 C 62 % 1018,0 hPa 0,0 l/m 0 min 0 min 16 W/m 16,7 km/h (3 Bft)
20.05.2015 21:10 12,9 C 10,6 C 62 % 1018,0 hPa 0,0 l/m 0 min 0 min 14 W/m 8,4 km/h (2 Bft)
20.05.2015 21:12 12,9 C 10,6 C 62 % 1018,0 hPa 0,0 l/m 0 min 0 min 13 W/m 6,3 km/h (2 Bft)
20.05.2015 21:14 12,8 C 10,6 C 62 % 1018,0 hPa 0,0 l/m 0 min 0 min 12 W/m 8,4 km/h (2 Bft)
20.05.2015 21:16 12,8 C 10,6 C 62 % 1018,1 hPa 0,0 l/m 0 min 0 min 12 W/m 8,4 km/h (2 Bft)
20.05.2015 21:18 12,7 C 10,6 C 62 % 1018,0 hPa 0,0 l/m 0 min 0 min 11 W/m 8,4 km/h (2 Bft)
20.05.2015 21:20 12,7 C 10,0 C 62 % 1018,1 hPa 0,0 l/m 0 min 0 min 10 W/m 8,4 km/h (2 Bft)
20.05.2015 21:22 12,6 C 10,0 C 63 % 1018,2 hPa 0,0 l/m 0 min 0 min 9 W/m 8,4 km/h (2 Bft)
20.05.2015 21:24 12,6 C 10,0 C 63 % 1018,2 hPa 0,0 l/m 0 min 0 min 7 W/m 10,5 km/h (2 Bft)
20.05.2015 21:26 12,5 C 10,0 C 63 % 1018,3 hPa 0,0 l/m 0 min 0 min 7 W/m 8,4 km/h (2 Bft)
20.05.2015 21:28 12,4 C 10,0 C 63 % 1018,3 hPa 0,0 l/m 0 min 0 min 6 W/m 6,3 km/h (2 Bft)
20.05.2015 21:30 12,4 C 10,0 C 63 % 1018,3 hPa 0,0 l/m 0 min 0 min 5 W/m 10,5 km/h (2 Bft)
20.05.2015 21:32 12,3 C 10,0 C 63 % 1018,4 hPa 0,0 l/m 0 min 0 min 5 W/m 10,5 km/h (2 Bft)
20.05.2015 21:34 12,3 C 10,0 C 63 % 1018,4 hPa 0,0 l/m 0 min 0 min 5 W/m 8,4 km/h (2 Bft)
20.05.2015 21:36 12,2 C 10,0 C 63 % 1018,4 hPa 0,0 l/m 0 min 0 min 2 W/m 6,3 km/h (2 Bft)
20.05.2015 21:38 12,2 C 9,4 C 63 % 1018,4 hPa 0,0 l/m 0 min 0 min 0 W/m 8,4 km/h (2 Bft)
20.05.2015 21:40 12,1 C 9,4 C 63 % 1018,5 hPa 0,0 l/m 0 min 0 min 0 W/m 6,3 km/h (2 Bft)
20.05.2015 21:42 12,0 C 9,4 C 63 % 1018,5 hPa 0,0 l/m 0 min 0 min 0 W/m 4,2 km/h (1 Bft)
20.05.2015 21:44 11,9 C 9,4 C 63 % 1018,5 hPa 0,0 l/m 0 min 0 min 0 W/m 6,3 km/h (2 Bft)
20.05.2015 21:46 11,9 C 9,4 C 64 % 1018,6 hPa 0,0 l/m 0 min 0 min 0 W/m 4,2 km/h (1 Bft)
20.05.2015 21:48 11,8 C 9,4 C 64 % 1018,7 hPa 0,0 l/m 0 min 0 min 0 W/m 4,2 km/h (1 Bft)
20.05.2015 21:50 11,8 C 9,4 C 64 % 1018,7 hPa 0,0 l/m 0 min 0 min 0 W/m 6,3 km/h (2 Bft)
20.05.2015 21:52 11,7 C 9,4 C 64 % 1018,7 hPa 0,0 l/m 0 min 0 min 0 W/m 4,2 km/h (1 Bft)
20.05.2015 21:54 11,6 C 9,4 C 64 % 1018,7 hPa 0,0 l/m 0 min 0 min 0 W/m 6,3 km/h (2 Bft)
20.05.2015 21:56 11,6 C 8,9 C 64 % 1018,8 hPa 0,0 l/m 0 min 0 min 0 W/m 4,2 km/h (1 Bft)
20.05.2015 21:58 11,5 C 8,9 C 64 % 1018,8 hPa 0,0 l/m 0 min 0 min 0 W/m 4,2 km/h (1 Bft)
20.05.2015 22:00 11,4 C 8,9 C 65 % 1018,8 hPa 0,0 l/m 0 min 0 min 0 W/m 6,3 km/h (2 Bft)
20.05.2015 22:02 11,3 C 8,9 C 65 % 1018,9 hPa 0,0 l/m 0 min 0 min 0 W/m 4,2 km/h (1 Bft)
20.05.2015 22:04 11,3 C 8,9 C 65 % 1018,9 hPa 0,0 l/m 0 min 0 min 0 W/m 2,1 km/h (1 Bft)
20.05.2015 22:06 11,2 C 8,9 C 65 % 1019,0 hPa 0,0 l/m 0 min 0 min 0 W/m 4,2 km/h (1 Bft)
20.05.2015 22:08 11,2 C 8,9 C 65 % 1018,9 hPa 0,0 l/m 0 min 0 min 0 W/m 2,1 km/h (1 Bft)
20.05.2015 22:10 11,1 C 8,9 C 65 % 1019,0 hPa 0,0 l/m 0 min 0 min 0 W/m 2,1 km/h (1 Bft)
20.05.2015 22:12 11,0 C 8,9 C 66 % 1019,0 hPa 0,0 l/m 0 min 0 min 0 W/m 6,3 km/h (2 Bft)
20.05.2015 22:14 10,9 C 8,9 C 66 % 1019,0 hPa 0,0 l/m 0 min 0 min 0 W/m 4,2 km/h (1 Bft)
20.05.2015 22:16 10,9 C 8,9 C 66 % 1019,0 hPa 0,0 l/m 0 min 0 min 0 W/m 2,1 km/h (1 Bft)
20.05.2015 22:18 10,8 C 8,9 C 66 % 1019,1 hPa 0,0 l/m 0 min 0 min 0 W/m 4,2 km/h (1 Bft)
20.05.2015 22:20 10,8 C 8,3 C 66 % 1019,1 hPa 0,0 l/m 0 min 0 min 0 W/m 4,2 km/h (1 Bft)
20.05.2015 22:22 10,7 C 8,3 C 66 % 1019,1 hPa 0,0 l/m 0 min 0 min 0 W/m 6,3 km/h (2 Bft)
20.05.2015 22:24 10,7 C 8,3 C 67 % 1019,1 hPa 0,0 l/m 0 min 0 min 0 W/m 6,3 km/h (2 Bft)
20.05.2015 22:26 10,6 C 8,3 C 67 % 1019,1 hPa 0,0 l/m 0 min 0 min 0 W/m 4,2 km/h (1 Bft)
20.05.2015 22:28 10,5 C 8,3 C 67 % 1019,1 hPa 0,0 l/m 0 min 0 min 0 W/m 4,2 km/h (1 Bft)
20.05.2015 22:30 10,4 C 8,3 C 67 % 1019,1 hPa 0,0 l/m 0 min 0 min 0 W/m 4,2 km/h (1 Bft)
20.05.2015 22:32 10,4 C 8,3 C 67 % 1019,1 hPa 0,0 l/m 0 min 0 min 0 W/m 4,2 km/h (1 Bft)
20.05.2015 22:34 10,3 C 8,3 C 68 % 1019,2 hPa 0,0 l/m 0 min 0 min 0 W/m 4,2 km/h (1 Bft)
20.05.2015 22:36 10,3 C 8,3 C 68 % 1019,2 hPa 0,0 l/m 0 min 0 min 0 W/m 4,2 km/h (1 Bft)
20.05.2015 22:38 10,2 C 8,3 C 68 % 1019,2 hPa 0,0 l/m 0 min 0 min 0 W/m 2,1 km/h (1 Bft)
20.05.2015 22:40 10,2 C 8,3 C 68 % 1019,2 hPa 0,0 l/m 0 min 0 min 0 W/m 4,2 km/h (1 Bft)
20.05.2015 22:42 10,1 C 8,3 C 68 % 1019,2 hPa 0,0 l/m 0 min 0 min 0 W/m 4,2 km/h (1 Bft)
20.05.2015 22:44 10,1 C 8,3 C 69 % 1019,2 hPa 0,0 l/m 0 min 0 min 0 W/m 4,2 km/h (1 Bft)
20.05.2015 22:46 10,0 C 7,8 C 69 % 1019,3 hPa 0,0 l/m 0 min 0 min 0 W/m 4,2 km/h (1 Bft)
20.05.2015 22:48 9,9 C 7,8 C 69 % 1019,3 hPa 0,0 l/m 0 min 0 min 0 W/m 4,2 km/h (1 Bft)
20.05.2015 22:50 9,9 C 7,8 C 69 % 1019,3 hPa 0,0 l/m 0 min 0 min 0 W/m 4,2 km/h (1 Bft)
20.05.2015 22:52 9,8 C 7,8 C 69 % 1019,3 hPa 0,0 l/m 0 min 0 min 0 W/m 4,2 km/h (1 Bft)
20.05.2015 22:54 9,8 C 7,8 C 70 % 1019,3 hPa 0,0 l/m 0 min 0 min 0 W/m 2,1 km/h (1 Bft)
20.05.2015 22:56 9,7 C 7,8 C 70 % 1019,3 hPa 0,0 l/m 0 min 0 min 0 W/m 2,1 km/h (1 Bft)
20.05.2015 22:58 9,7 C 7,8 C 70 % 1019,4 hPa 0,0 l/m 0 min 0 min 0 W/m 2,1 km/h (1 Bft)
20.05.2015 23:00 9,6 C 7,8 C 70 % 1019,4 hPa 0,0 l/m 0 min 0 min 0 W/m 2,1 km/h (1 Bft)
20.05.2015 23:02 9,6 C 7,8 C 70 % 1019,4 hPa 0,0 l/m 0 min 0 min 0 W/m 4,2 km/h (1 Bft)
20.05.2015 23:04 9,5 C 7,8 C 71 % 1019,5 hPa 0,0 l/m 0 min 0 min 0 W/m 4,2 km/h (1 Bft)
20.05.2015 23:06 9,4 C 7,8 C 71 % 1019,4 hPa 0,0 l/m 0 min 0 min 0 W/m 4,2 km/h (1 Bft)
20.05.2015 23:08 9,4 C 7,8 C 71 % 1019,5 hPa 0,0 l/m 0 min 0 min 0 W/m 4,2 km/h (1 Bft)
20.05.2015 23:10 9,3 C 7,8 C 71 % 1019,5 hPa 0,0 l/m 0 min 0 min 0 W/m 4,2 km/h (1 Bft)
20.05.2015 23:12 9,3 C 7,8 C 72 % 1019,5 hPa 0,0 l/m 0 min 0 min 0 W/m 4,2 km/h (1 Bft)
20.05.2015 23:14 9,2 C 7,8 C 72 % 1019,6 hPa 0,0 l/m 0 min 0 min 0 W/m 4,2 km/h (1 Bft)
20.05.2015 23:16 9,2 C 7,8 C 72 % 1019,6 hPa 0,0 l/m 0 min 0 min 0 W/m 4,2 km/h (1 Bft)
20.05.2015 23:18 9,1 C 7,2 C 72 % 1019,6 hPa 0,0 l/m 0 min 0 min 0 W/m 4,2 km/h (1 Bft)
20.05.2015 23:20 9,1 C 7,2 C 72 % 1019,6 hPa 0,0 l/m 0 min 0 min 0 W/m 4,2 km/h (1 Bft)
20.05.2015 23:22 9,0 C 7,2 C 73 % 1019,6 hPa 0,0 l/m 0 min 0 min 0 W/m 6,3 km/h (2 Bft)
20.05.2015 23:24 8,9 C 7,2 C 73 % 1019,6 hPa 0,0 l/m 0 min 0 min 0 W/m 4,2 km/h (1 Bft)
20.05.2015 23:26 8,9 C 7,2 C 73 % 1019,6 hPa 0,0 l/m 0 min 0 min 0 W/m 4,2 km/h (1 Bft)
20.05.2015 23:28 8,8 C 7,2 C 73 % 1019,5 hPa 0,0 l/m 0 min 0 min 0 W/m 4,2 km/h (1 Bft)
20.05.2015 23:30 8,8 C 7,2 C 74 % 1019,6 hPa 0,0 l/m 0 min 0 min 0 W/m 4,2 km/h (1 Bft)
20.05.2015 23:32 8,7 C 7,2 C 74 % 1019,6 hPa 0,0 l/m 0 min 0 min 0 W/m 4,2 km/h (1 Bft)
20.05.2015 23:34 8,7 C 7,2 C 74 % 1019,7 hPa 0,0 l/m 0 min 0 min 0 W/m 4,2 km/h (1 Bft)
20.05.2015 23:36 8,6 C 7,2 C 74 % 1019,8 hPa 0,0 l/m 0 min 0 min 0 W/m 4,2 km/h (1 Bft)
20.05.2015 23:38 8,6 C 7,2 C 74 % 1019,8 hPa 0,0 l/m 0 min 0 min 0 W/m 2,1 km/h (1 Bft)
20.05.2015 23:40 8,5 C 7,2 C 75 % 1019,8 hPa 0,0 l/m 0 min 2 min 0 W/m 2,1 km/h (1 Bft)
20.05.2015 23:42 8,4 C 7,2 C 75 % 1019,9 hPa 0,0 l/m 0 min 0 min 0 W/m 2,1 km/h (1 Bft)
20.05.2015 23:44 8,4 C 7,2 C 75 % 1019,9 hPa 0,0 l/m 0 min 0 min 0 W/m 2,1 km/h (1 Bft)
20.05.2015 23:46 8,3 C 7,2 C 75 % 1019,9 hPa 0,0 l/m 0 min 0 min 0 W/m 2,1 km/h (1 Bft)
20.05.2015 23:48 8,3 C 7,2 C 76 % 1019,9 hPa 0,0 l/m 0 min 0 min 0 W/m 2,1 km/h (1 Bft)
20.05.2015 23:50 8,2 C 7,2 C 76 % 1019,9 hPa 0,0 l/m 0 min 0 min 0 W/m 2,1 km/h (1 Bft)
20.05.2015 23:52 8,2 C 7,2 C 76 % 1019,9 hPa 0,0 l/m 0 min 0 min 0 W/m 2,1 km/h (1 Bft)
20.05.2015 23:54 8,2 C 7,2 C 76 % 1019,9 hPa 0,0 l/m 0 min 0 min 0 W/m 2,1 km/h (1 Bft)
20.05.2015 23:56 8,1 C 7,2 C 76 % 1020,0 hPa 0,0 l/m 0 min 0 min 0 W/m 2,1 km/h (1 Bft)
20.05.2015 23:58 8,1 C 7,2 C 76 % 1020,0 hPa 0,0 l/m 0 min 0 min 0 W/m 4,2 km/h (1 Bft)
_ Min-Zeit 04:54 03:56 13:42 00:08 - - - - 22:04
Minimum _ 6,9 C 6,7 C 52 % 1009,2 hPa - - - - 2,1 km/h (1 Bft)
_ Max-Zeit 13:42 13:32 05:20 23:56 00:00 06:22 13:52 13:36 07:48
Maximum _ 17,2 C 20,6 C 89 % 1020,0 hPa 0,0 l/m 2 min 2 min 1065 W/m 33,5 km/h
W-SW (5 Bft)
Durchschnitt _ 11,6 C 10,8 C 70 % 1013,5 hPa #0,0 l/m #9:16 h #16 min. 349 W/m 15,6 km/h (3 Bft)
© 2015 W. Hausmann